Wetterdaten: Montag, 18.04.2022
Datum Zeit Temp. Aussen Temp. o. S. Temp +5cm Feuchte Auss Luftdruck Regen Sonnenschein Regendauer Solar Windben Empfang
18.04.2022 00:00 9,9 C 8,9 C 5,6 C 63 % 1021,5 hPa 0,0 l/m 0 min 0 min 0 W/m 3,2 km/h (1 Bft) 97,87 %
18.04.2022 00:02 9,9 C 8,9 C 5,6 C 63 % 1021,5 hPa 0,0 l/m 0 min 0 min 0 W/m 3,2 km/h (1 Bft) 94,87 %
18.04.2022 00:04 9,9 C 8,9 C 5,0 C 63 % 1021,5 hPa 0,0 l/m 0 min 0 min 0 W/m 0,0 km/h (0 Bft) 95,74 %
18.04.2022 00:08 9,8 C 8,3 C 5,0 C 64 % 1021,5 hPa 0,0 l/m 0 min 0 min 0 W/m 3,2 km/h (1 Bft) 95,12 %
18.04.2022 00:10 9,8 C 8,3 C 5,0 C 64 % 1021,5 hPa 0,0 l/m 0 min 0 min 0 W/m 0,0 km/h (0 Bft) 97,87 %
18.04.2022 00:12 9,8 C 8,3 C 5,0 C 64 % 1021,5 hPa 0,0 l/m 0 min 0 min 0 W/m 3,2 km/h (1 Bft) 95,74 %
18.04.2022 00:14 9,8 C 8,3 C 5,0 C 64 % 1021,5 hPa 0,0 l/m 0 min 0 min 0 W/m 0,0 km/h (0 Bft) 95,65 %
18.04.2022 00:16 9,8 C 8,9 C 5,0 C 63 % 1021,5 hPa 0,0 l/m 0 min 0 min 0 W/m 3,2 km/h (1 Bft) 97,87 %
18.04.2022 00:18 9,7 C 8,9 C 5,6 C 62 % 1021,5 hPa 0,0 l/m 0 min 0 min 0 W/m 3,2 km/h (1 Bft) 95,74 %
18.04.2022 00:20 9,7 C 8,9 C 5,6 C 61 % 1021,5 hPa 0,0 l/m 0 min 0 min 0 W/m 6,4 km/h (2 Bft) 95,74 %
18.04.2022 00:22 9,7 C 8,9 C 5,6 C 61 % 1021,5 hPa 0,0 l/m 0 min 0 min 0 W/m 6,4 km/h (2 Bft) 97,87 %
18.04.2022 00:24 9,7 C 9,4 C 5,6 C 60 % 1021,5 hPa 0,0 l/m 0 min 0 min 0 W/m 3,2 km/h (1 Bft) 93,62 %
18.04.2022 00:26 9,7 C 9,4 C 5,6 C 60 % 1021,5 hPa 0,0 l/m 0 min 0 min 0 W/m 3,2 km/h (1 Bft) 48,78 %
18.04.2022 00:28 9,7 C 9,4 C 6,1 C 60 % 1021,5 hPa 0,0 l/m 0 min 0 min 0 W/m 12,9 km/h (3 Bft) 95,74 %
18.04.2022 00:30 9,8 C 9,4 C 6,1 C 59 % 1021,5 hPa 0,0 l/m 0 min 0 min 0 W/m 6,4 km/h (2 Bft) 93,62 %
18.04.2022 00:32 9,8 C 9,4 C 6,1 C 59 % 1021,5 hPa 0,0 l/m 0 min 0 min 0 W/m 6,4 km/h (2 Bft) 95,74 %
18.04.2022 00:34 9,8 C 9,4 C 6,1 C 58 % 1021,4 hPa 0,0 l/m 0 min 0 min 0 W/m 6,4 km/h (2 Bft) 95,74 %
18.04.2022 00:36 9,9 C 10,0 C 6,1 C 57 % 1021,5 hPa 0,0 l/m 0 min 0 min 0 W/m 6,4 km/h (2 Bft) 93,62 %
18.04.2022 00:38 9,9 C 10,0 C 6,7 C 58 % 1021,5 hPa 0,0 l/m 0 min 0 min 0 W/m 6,4 km/h (2 Bft) 95,65 %
18.04.2022 00:40 10,0 C 10,0 C 6,7 C 57 % 1021,4 hPa 0,0 l/m 0 min 0 min 0 W/m 9,7 km/h (2 Bft) 97,87 %
18.04.2022 00:42 10,1 C 10,0 C 6,7 C 56 % 1021,4 hPa 0,0 l/m 0 min 0 min 0 W/m 12,9 km/h (3 Bft) 100,00 %
18.04.2022 00:44 10,1 C 10,0 C 6,7 C 56 % 1021,4 hPa 0,0 l/m 0 min 0 min 0 W/m 9,7 km/h (2 Bft) 97,87 %
18.04.2022 00:46 10,1 C 10,0 C 6,7 C 56 % 1021,4 hPa 0,0 l/m 0 min 0 min 0 W/m 6,4 km/h (2 Bft) 100,00 %
18.04.2022 00:48 10,2 C 10,0 C 6,7 C 56 % 1021,4 hPa 0,0 l/m 0 min 0 min 0 W/m 6,4 km/h (2 Bft) 100,00 %
18.04.2022 00:50 10,2 C 10,0 C 6,7 C 56 % 1021,4 hPa 0,0 l/m 0 min 0 min 0 W/m 6,4 km/h (2 Bft) 100,00 %
18.04.2022 00:52 10,2 C 10,0 C 6,7 C 55 % 1021,4 hPa 0,0 l/m 0 min 0 min 0 W/m 3,2 km/h (1 Bft) 100,00 %
18.04.2022 00:54 10,3 C 10,0 C 6,7 C 55 % 1021,4 hPa 0,0 l/m 0 min 0 min 0 W/m 12,9 km/h (3 Bft) 95,74 %
18.04.2022 00:56 10,3 C 10,0 C 6,7 C 55 % 1021,4 hPa 0,0 l/m 0 min 0 min 0 W/m 6,4 km/h (2 Bft) 97,87 %
18.04.2022 00:58 10,3 C 10,0 C 6,7 C 54 % 1021,4 hPa 0,0 l/m 0 min 0 min 0 W/m 6,4 km/h (2 Bft) 97,87 %
18.04.2022 01:00 10,3 C 10,0 C 6,7 C 54 % 1021,4 hPa 0,0 l/m 0 min 0 min 0 W/m 6,4 km/h (2 Bft) 97,87 %
18.04.2022 01:02 10,3 C 10,0 C 6,7 C 55 % 1021,4 hPa 0,0 l/m 0 min 0 min 0 W/m 6,4 km/h (2 Bft) 95,65 %
18.04.2022 01:04 10,4 C 9,4 C 6,7 C 54 % 1021,4 hPa 0,0 l/m 0 min 0 min 0 W/m 3,2 km/h (1 Bft) 97,87 %
18.04.2022 01:06 10,4 C 9,4 C 6,7 C 54 % 1021,4 hPa 0,0 l/m 0 min 0 min 0 W/m 9,7 km/h (2 Bft) 95,74 %
18.04.2022 01:08 10,4 C 9,4 C 6,1 C 55 % 1021,4 hPa 0,0 l/m 0 min 0 min 0 W/m 6,4 km/h (2 Bft) 97,87 %
18.04.2022 01:10 10,4 C 9,4 C 6,1 C 54 % 1021,4 hPa 0,0 l/m 0 min 0 min 0 W/m 12,9 km/h (3 Bft) 97,87 %
18.04.2022 01:12 10,4 C 9,4 C 6,7 C 54 % 1021,4 hPa 0,0 l/m 0 min 0 min 0 W/m 6,4 km/h (2 Bft) 97,83 %
18.04.2022 01:14 10,4 C 10,0 C 6,7 C 54 % 1021,3 hPa 0,0 l/m 0 min 0 min 0 W/m 12,9 km/h (3 Bft) 97,87 %
18.04.2022 01:16 10,4 C 10,0 C 6,7 C 53 % 1021,3 hPa 0,0 l/m 0 min 0 min 0 W/m 6,4 km/h (2 Bft) 97,87 %
18.04.2022 01:18 10,5 C 10,0 C 6,7 C 53 % 1021,3 hPa 0,0 l/m 0 min 0 min 0 W/m 6,4 km/h (2 Bft) 97,87 %
18.04.2022 01:20 10,5 C 10,0 C 6,7 C 53 % 1021,3 hPa 0,0 l/m 0 min 0 min 0 W/m 6,4 km/h (2 Bft) 97,87 %
18.04.2022 01:22 10,5 C 10,0 C 6,7 C 53 % 1021,3 hPa 0,0 l/m 0 min 0 min 0 W/m 6,4 km/h (2 Bft) 97,87 %
18.04.2022 01:24 10,5 C 10,0 C 6,7 C 53 % 1021,3 hPa 0,0 l/m 0 min 0 min 0 W/m 12,9 km/h (3 Bft) 95,65 %
18.04.2022 01:26 10,5 C 10,0 C 6,7 C 53 % 1021,3 hPa 0,0 l/m 0 min 0 min 0 W/m 12,9 km/h (3 Bft) 97,87 %
18.04.2022 01:28 10,5 C 10,0 C 6,7 C 52 % 1021,3 hPa 0,0 l/m 0 min 0 min 0 W/m 12,9 km/h (3 Bft) 100,00 %
18.04.2022 01:30 10,5 C 9,4 C 6,1 C 53 % 1021,3 hPa 0,0 l/m 0 min 0 min 0 W/m 6,4 km/h (2 Bft) 100,00 %
18.04.2022 01:32 10,5 C 9,4 C 6,1 C 53 % 1021,2 hPa 0,0 l/m 0 min 0 min 0 W/m 9,7 km/h (2 Bft) 97,87 %
18.04.2022 01:34 10,5 C 9,4 C 6,1 C 53 % 1021,3 hPa 0,0 l/m 0 min 0 min 0 W/m 16,1 km/h (3 Bft) 100,00 %
18.04.2022 01:36 10,5 C 9,4 C 6,1 C 53 % 1021,2 hPa 0,0 l/m 0 min 0 min 0 W/m 6,4 km/h (2 Bft) 97,83 %
18.04.2022 01:38 10,4 C 9,4 C 6,1 C 53 % 1021,2 hPa 0,0 l/m 0 min 0 min 0 W/m 12,9 km/h (3 Bft) 100,00 %
18.04.2022 01:40 10,4 C 9,4 C 6,1 C 53 % 1021,2 hPa 0,0 l/m 0 min 0 min 0 W/m 6,4 km/h (2 Bft) 97,87 %
18.04.2022 01:42 10,4 C 9,4 C 6,1 C 53 % 1021,2 hPa 0,0 l/m 0 min 0 min 0 W/m 6,4 km/h (2 Bft) 97,87 %
18.04.2022 01:44 10,4 C 9,4 C 6,1 C 53 % 1021,2 hPa 0,0 l/m 0 min 0 min 0 W/m 12,9 km/h (3 Bft) 100,00 %
18.04.2022 01:46 10,4 C 9,4 C 6,1 C 53 % 1021,2 hPa 0,0 l/m 0 min 0 min 0 W/m 9,7 km/h (2 Bft) 100,00 %
18.04.2022 01:48 10,3 C 9,4 C 6,1 C 53 % 1021,2 hPa 0,0 l/m 0 min 0 min 0 W/m 6,4 km/h (2 Bft) 100,00 %
18.04.2022 01:50 10,3 C 9,4 C 6,1 C 54 % 1021,2 hPa 0,0 l/m 0 min 0 min 0 W/m 6,4 km/h (2 Bft) 100,00 %
18.04.2022 01:52 10,3 C 9,4 C 6,1 C 53 % 1021,1 hPa 0,0 l/m 0 min 0 min 0 W/m 6,4 km/h (2 Bft) 100,00 %
18.04.2022 01:54 10,2 C 9,4 C 6,1 C 54 % 1021,2 hPa 0,0 l/m 0 min 0 min 0 W/m 12,9 km/h (3 Bft) 100,00 %
18.04.2022 01:56 10,2 C 8,9 C 6,1 C 54 % 1021,1 hPa 0,0 l/m 0 min 0 min 0 W/m 3,2 km/h (1 Bft) 100,00 %
18.04.2022 01:58 10,2 C 8,9 C 6,1 C 54 % 1021,1 hPa 0,0 l/m 0 min 0 min 0 W/m 3,2 km/h (1 Bft) 100,00 %
18.04.2022 02:00 10,2 C 8,9 C 5,6 C 54 % 1021,1 hPa 0,0 l/m 0 min 0 min 0 W/m 6,4 km/h (2 Bft) 100,00 %
18.04.2022 02:02 10,1 C 8,9 C 5,6 C 53 % 1021,1 hPa 0,0 l/m 0 min 0 min 0 W/m 6,4 km/h (2 Bft) 100,00 %
18.04.2022 02:04 10,1 C 8,9 C 5,6 C 53 % 1021,1 hPa 0,0 l/m 0 min 0 min 0 W/m 12,9 km/h (3 Bft) 100,00 %
18.04.2022 02:06 10,1 C 8,9 C 5,6 C 54 % 1021,1 hPa 0,0 l/m 0 min 0 min 0 W/m 9,7 km/h (2 Bft) 100,00 %
18.04.2022 02:08 10,0 C 8,9 C 5,6 C 54 % 1021,1 hPa 0,0 l/m 0 min 0 min 0 W/m 3,2 km/h (1 Bft) 97,87 %
18.04.2022 02:10 9,9 C 8,9 C 5,6 C 54 % 1021,1 hPa 0,0 l/m 0 min 0 min 0 W/m 6,4 km/h (2 Bft) 97,83 %
18.04.2022 02:12 9,9 C 8,9 C 5,6 C 53 % 1021,1 hPa 0,0 l/m 0 min 0 min 0 W/m 16,1 km/h (3 Bft) 100,00 %
18.04.2022 02:14 9,9 C 8,9 C 5,6 C 53 % 1021,1 hPa 0,0 l/m 0 min 0 min 0 W/m 12,9 km/h (3 Bft) 100,00 %
18.04.2022 02:16 9,9 C 8,9 C 5,6 C 53 % 1021,0 hPa 0,0 l/m 0 min 0 min 0 W/m 16,1 km/h (3 Bft) 97,87 %
18.04.2022 02:18 9,9 C 8,9 C 5,6 C 54 % 1021,1 hPa 0,0 l/m 0 min 0 min 0 W/m 9,7 km/h (2 Bft) 97,87 %
18.04.2022 02:20 9,8 C 8,9 C 5,6 C 54 % 1021,0 hPa 0,0 l/m 0 min 0 min 0 W/m 6,4 km/h (2 Bft) 97,87 %
18.04.2022 02:22 9,8 C 8,9 C 5,6 C 53 % 1021,1 hPa 0,0 l/m 0 min 0 min 0 W/m 12,9 km/h (3 Bft) 97,83 %
18.04.2022 02:24 9,8 C 8,9 C 5,6 C 53 % 1021,0 hPa 0,0 l/m 0 min 0 min 0 W/m 6,4 km/h (2 Bft) 97,87 %
18.04.2022 02:26 9,8 C 8,9 C 5,6 C 54 % 1021,1 hPa 0,0 l/m 0 min 0 min 0 W/m 12,9 km/h (3 Bft) 97,87 %
18.04.2022 02:28 9,8 C 8,9 C 5,6 C 54 % 1021,0 hPa 0,0 l/m 0 min 0 min 0 W/m 6,4 km/h (2 Bft) 97,87 %
18.04.2022 02:30 9,8 C 8,9 C 5,6 C 54 % 1021,0 hPa 0,0 l/m 0 min 0 min 0 W/m 12,9 km/h (3 Bft) 97,87 %
18.04.2022 02:32 9,8 C 8,9 C 5,6 C 54 % 1021,0 hPa 0,0 l/m 0 min 0 min 0 W/m 9,7 km/h (2 Bft) 97,87 %
18.04.2022 02:34 9,8 C 8,9 C 5,6 C 54 % 1021,0 hPa 0,0 l/m 0 min 0 min 0 W/m 12,9 km/h (3 Bft) 97,83 %
18.04.2022 02:36 9,8 C 8,9 C 5,6 C 54 % 1020,9 hPa 0,0 l/m 0 min 0 min 0 W/m 9,7 km/h (2 Bft) 97,87 %
18.04.2022 02:38 9,8 C 8,9 C 5,6 C 54 % 1020,9 hPa 0,0 l/m 0 min 0 min 0 W/m 6,4 km/h (2 Bft) 97,87 %
18.04.2022 02:40 9,7 C 8,9 C 5,6 C 54 % 1020,8 hPa 0,0 l/m 0 min 0 min 0 W/m 6,4 km/h (2 Bft) 95,74 %
18.04.2022 02:42 9,7 C 8,9 C 5,6 C 54 % 1020,9 hPa 0,0 l/m 0 min 0 min 0 W/m 6,4 km/h (2 Bft) 95,74 %
18.04.2022 02:44 9,7 C 8,9 C 5,6 C 54 % 1020,8 hPa 0,0 l/m 0 min 0 min 0 W/m 9,7 km/h (2 Bft) 95,74 %
18.04.2022 02:46 9,7 C 8,9 C 5,6 C 54 % 1020,9 hPa 0,0 l/m 0 min 0 min 0 W/m 6,4 km/h (2 Bft) 95,65 %
18.04.2022 02:48 9,7 C 8,9 C 5,6 C 54 % 1020,8 hPa 0,0 l/m 0 min 0 min 0 W/m 9,7 km/h (2 Bft) 95,74 %
18.04.2022 02:50 9,7 C 8,9 C 5,6 C 54 % 1020,8 hPa 0,0 l/m 0 min 0 min 0 W/m 12,9 km/h (3 Bft) 95,74 %
18.04.2022 02:52 9,7 C 8,9 C 5,6 C 54 % 1020,8 hPa 0,0 l/m 0 min 0 min 0 W/m 16,1 km/h (3 Bft) 95,74 %
18.04.2022 02:54 9,7 C 8,9 C 5,6 C 54 % 1020,8 hPa 0,0 l/m 0 min 0 min 0 W/m 6,4 km/h (2 Bft) 93,62 %
18.04.2022 02:56 9,7 C 8,9 C 5,6 C 54 % 1020,8 hPa 0,0 l/m 0 min 0 min 0 W/m 6,4 km/h (2 Bft) 95,65 %
18.04.2022 02:58 9,7 C 8,9 C 5,6 C 54 % 1020,8 hPa 0,0 l/m 0 min 0 min 0 W/m 12,9 km/h (3 Bft) 95,74 %
18.04.2022 03:00 9,7 C 8,9 C 5,6 C 53 % 1020,8 hPa 0,0 l/m 0 min 0 min 0 W/m 12,9 km/h (3 Bft) 95,74 %
18.04.2022 03:02 9,7 C 8,9 C 5,6 C 54 % 1020,8 hPa 0,0 l/m 0 min 0 min 0 W/m 16,1 km/h (3 Bft) 95,74 %
18.04.2022 03:04 9,7 C 8,9 C 5,6 C 54 % 1020,7 hPa 0,0 l/m 0 min 0 min 0 W/m 16,1 km/h (3 Bft) 95,74 %
18.04.2022 03:06 9,6 C 8,3 C 5,6 C 54 % 1020,7 hPa 0,0 l/m 0 min 0 min 0 W/m 6,4 km/h (2 Bft) 95,74 %
18.04.2022 03:08 9,6 C 8,3 C 5,0 C 54 % 1020,7 hPa 0,0 l/m 0 min 0 min 0 W/m 12,9 km/h (3 Bft) 95,65 %
18.04.2022 03:10 9,6 C 8,3 C 5,0 C 55 % 1020,7 hPa 0,0 l/m 0 min 0 min 0 W/m 6,4 km/h (2 Bft) 97,87 %
18.04.2022 03:12 9,6 C 8,3 C 5,0 C 54 % 1020,7 hPa 0,0 l/m 0 min 0 min 0 W/m 6,4 km/h (2 Bft) 97,87 %
18.04.2022 03:14 9,5 C 8,3 C 5,0 C 54 % 1020,7 hPa 0,0 l/m 0 min 0 min 0 W/m 6,4 km/h (2 Bft) 95,74 %
18.04.2022 03:16 9,5 C 8,3 C 5,0 C 54 % 1020,7 hPa 0,0 l/m 0 min 0 min 0 W/m 6,4 km/h (2 Bft) 97,87 %
18.04.2022 03:18 9,4 C 8,3 C 5,0 C 55 % 1020,7 hPa 0,0 l/m 0 min 0 min 0 W/m 12,9 km/h (3 Bft) 97,87 %
18.04.2022 03:20 9,4 C 8,3 C 5,0 C 55 % 1020,7 hPa 0,0 l/m 0 min 0 min 0 W/m 6,4 km/h (2 Bft) 97,83 %
18.04.2022 03:22 9,4 C 8,3 C 5,0 C 55 % 1020,7 hPa 0,0 l/m 0 min 0 min 0 W/m 6,4 km/h (2 Bft) 97,87 %
18.04.2022 03:24 9,3 C 8,3 C 5,0 C 55 % 1020,7 hPa 0,0 l/m 0 min 0 min 0 W/m 3,2 km/h (1 Bft) 95,74 %
18.04.2022 03:26 9,3 C 8,3 C 5,0 C 56 % 1020,7 hPa 0,0 l/m 0 min 0 min 0 W/m 3,2 km/h (1 Bft) 95,74 %
18.04.2022 03:28 9,3 C 8,3 C 5,0 C 56 % 1020,7 hPa 0,0 l/m 0 min 0 min 0 W/m 6,4 km/h (2 Bft) 97,87 %
18.04.2022 03:30 9,2 C 8,3 C 5,0 C 55 % 1020,7 hPa 0,0 l/m 0 min 0 min 0 W/m 6,4 km/h (2 Bft) 97,87 %
18.04.2022 03:32 9,2 C 7,8 C 5,0 C 56 % 1020,7 hPa 0,0 l/m 0 min 0 min 0 W/m 6,4 km/h (2 Bft) 93,48 %
18.04.2022 03:34 9,2 C 7,8 C 5,0 C 56 % 1020,8 hPa 0,0 l/m 0 min 0 min 0 W/m 6,4 km/h (2 Bft) 97,87 %
18.04.2022 03:36 9,2 C 7,8 C 5,0 C 56 % 1020,8 hPa 0,0 l/m 0 min 0 min 0 W/m 6,4 km/h (2 Bft) 97,87 %
18.04.2022 03:38 9,1 C 7,8 C 5,0 C 56 % 1020,8 hPa 0,0 l/m 0 min 0 min 0 W/m 6,4 km/h (2 Bft) 95,74 %
18.04.2022 03:40 9,1 C 7,8 C 5,0 C 56 % 1020,8 hPa 0,0 l/m 0 min 0 min 0 W/m 6,4 km/h (2 Bft) 97,87 %
18.04.2022 03:42 9,1 C 7,8 C 5,0 C 56 % 1020,8 hPa 0,0 l/m 0 min 0 min 0 W/m 6,4 km/h (2 Bft) 97,87 %
18.04.2022 03:44 9,1 C 7,8 C 5,0 C 56 % 1020,7 hPa 0,0 l/m 0 min 0 min 0 W/m 6,4 km/h (2 Bft) 97,83 %
18.04.2022 03:46 9,0 C 7,8 C 4,4 C 56 % 1020,7 hPa 0,0 l/m 0 min 0 min 0 W/m 6,4 km/h (2 Bft) 97,87 %
18.04.2022 03:48 9,0 C 7,8 C 4,4 C 56 % 1020,7 hPa 0,0 l/m 0 min 0 min 0 W/m 12,9 km/h (3 Bft) 95,74 %
18.04.2022 03:50 8,9 C 7,8 C 4,4 C 56 % 1020,7 hPa 0,0 l/m 0 min 0 min 0 W/m 6,4 km/h (2 Bft) 97,87 %
18.04.2022 03:52 8,9 C 7,8 C 4,4 C 57 % 1020,7 hPa 0,0 l/m 0 min 0 min 0 W/m 6,4 km/h (2 Bft) 97,87 %
18.04.2022 03:54 8,8 C 7,8 C 4,4 C 56 % 1020,7 hPa 0,0 l/m 0 min 0 min 0 W/m 6,4 km/h (2 Bft) 100,00 %
18.04.2022 03:56 8,8 C 7,8 C 4,4 C 57 % 1020,7 hPa 0,0 l/m 0 min 0 min 0 W/m 6,4 km/h (2 Bft) 100,00 %
18.04.2022 03:58 8,8 C 7,8 C 4,4 C 57 % 1020,7 hPa 0,0 l/m 0 min 0 min 0 W/m 6,4 km/h (2 Bft) 100,00 %
18.04.2022 04:00 8,8 C 7,8 C 4,4 C 57 % 1020,7 hPa 0,0 l/m 0 min 0 min 0 W/m 12,9 km/h (3 Bft) 100,00 %
18.04.2022 04:05 8,7 C 7,2 C 4,4 C 57 % 1020,5 hPa 0,0 l/m 0 min 0 min 0 W/m 6,4 km/h (2 Bft) 97,06 %
18.04.2022 04:06 8,7 C 7,2 C 4,4 C 57 % 1020,5 hPa 0,0 l/m 0 min 0 min 0 W/m 6,4 km/h (2 Bft) 100,00 %
18.04.2022 04:08 8,6 C 7,2 C 4,4 C 58 % 1020,5 hPa 0,0 l/m 0 min 0 min 0 W/m 12,9 km/h (3 Bft) 100,00 %
18.04.2022 04:10 8,6 C 7,2 C 4,4 C 58 % 1020,5 hPa 0,0 l/m 0 min 0 min 0 W/m 3,2 km/h (1 Bft) 97,87 %
18.04.2022 04:12 8,6 C 7,2 C 4,4 C 58 % 1020,5 hPa 0,0 l/m 0 min 0 min 0 W/m 6,4 km/h (2 Bft) 100,00 %
18.04.2022 04:14 8,6 C 7,2 C 4,4 C 58 % 1020,5 hPa 0,0 l/m 0 min 0 min 0 W/m 6,4 km/h (2 Bft) 100,00 %
18.04.2022 04:16 8,5 C 7,2 C 4,4 C 58 % 1020,5 hPa 0,0 l/m 0 min 0 min 0 W/m 6,4 km/h (2 Bft) 95,74 %
18.04.2022 04:18 8,4 C 7,2 C 4,4 C 58 % 1020,4 hPa 0,0 l/m 0 min 0 min 0 W/m 3,2 km/h (1 Bft) 97,87 %
18.04.2022 04:20 8,4 C 7,2 C 4,4 C 58 % 1020,4 hPa 0,0 l/m 0 min 0 min 0 W/m 6,4 km/h (2 Bft) 100,00 %
18.04.2022 04:22 8,4 C 7,2 C 4,4 C 59 % 1020,4 hPa 0,0 l/m 0 min 0 min 0 W/m 3,2 km/h (1 Bft) 97,83 %
18.04.2022 04:24 8,4 C 7,2 C 3,9 C 59 % 1020,4 hPa 0,0 l/m 0 min 0 min 0 W/m 6,4 km/h (2 Bft) 100,00 %
18.04.2022 04:26 8,3 C 7,2 C 3,9 C 59 % 1020,4 hPa 0,0 l/m 0 min 0 min 0 W/m 6,4 km/h (2 Bft) 91,49 %
18.04.2022 04:28 8,3 C 7,2 C 3,9 C 59 % 1020,3 hPa 0,0 l/m 0 min 0 min 0 W/m 3,2 km/h (1 Bft) 97,87 %
18.04.2022 04:30 8,3 C 7,2 C 3,9 C 59 % 1020,3 hPa 0,0 l/m 0 min 0 min 0 W/m 3,2 km/h (1 Bft) 93,62 %
18.04.2022 04:32 8,3 C 7,2 C 3,9 C 60 % 1020,3 hPa 0,0 l/m 0 min 0 min 0 W/m 6,4 km/h (2 Bft) 93,62 %
18.04.2022 04:34 8,2 C 7,2 C 3,9 C 60 % 1020,3 hPa 0,0 l/m 0 min 0 min 0 W/m 3,2 km/h (1 Bft) 95,65 %
18.04.2022 04:36 8,2 C 7,2 C 3,9 C 60 % 1020,3 hPa 0,0 l/m 0 min 0 min 0 W/m 6,4 km/h (2 Bft) 95,74 %
18.04.2022 04:38 8,2 C 7,2 C 3,9 C 60 % 1020,2 hPa 0,0 l/m 0 min 0 min 0 W/m 6,4 km/h (2 Bft) 96,49 %
18.04.2022 04:40 8,2 C 7,2 C 3,9 C 59 % 1020,2 hPa 0,0 l/m 0 min 0 min 0 W/m 6,4 km/h (2 Bft) 95,74 %
18.04.2022 04:42 8,1 C 7,2 C 3,9 C 59 % 1020,1 hPa 0,0 l/m 0 min 0 min 0 W/m 6,4 km/h (2 Bft) 95,74 %
18.04.2022 04:44 8,1 C 7,2 C 3,9 C 59 % 1020,2 hPa 0,0 l/m 0 min 0 min 0 W/m 12,9 km/h (3 Bft) 95,65 %
18.04.2022 04:46 8,1 C 7,2 C 3,9 C 59 % 1020,2 hPa 0,0 l/m 0 min 0 min 0 W/m 6,4 km/h (2 Bft) 95,74 %
18.04.2022 04:48 8,1 C 7,2 C 3,9 C 60 % 1020,1 hPa 0,0 l/m 0 min 0 min 0 W/m 6,4 km/h (2 Bft) 95,74 %
18.04.2022 04:50 8,1 C 7,2 C 3,9 C 60 % 1020,1 hPa 0,0 l/m 0 min 0 min 0 W/m 6,4 km/h (2 Bft) 95,74 %
18.04.2022 04:52 8,1 C 7,2 C 3,9 C 60 % 1020,1 hPa 0,0 l/m 0 min 0 min 0 W/m 6,4 km/h (2 Bft) 97,87 %
18.04.2022 04:54 8,0 C 7,2 C 3,9 C 60 % 1020,1 hPa 0,0 l/m 0 min 0 min 0 W/m 12,9 km/h (3 Bft) 97,83 %
18.04.2022 04:56 8,0 C 7,2 C 3,9 C 60 % 1020,1 hPa 0,0 l/m 0 min 0 min 0 W/m 6,4 km/h (2 Bft) 93,62 %
18.04.2022 04:58 8,0 C 7,2 C 3,9 C 60 % 1020,0 hPa 0,0 l/m 0 min 0 min 0 W/m 6,4 km/h (2 Bft) 97,87 %
18.04.2022 05:00 8,0 C 7,2 C 3,9 C 60 % 1020,0 hPa 0,0 l/m 0 min 0 min 0 W/m 6,4 km/h (2 Bft) 97,87 %
18.04.2022 05:02 8,0 C 7,2 C 3,9 C 60 % 1020,0 hPa 0,0 l/m 0 min 0 min 0 W/m 12,9 km/h (3 Bft) 100,00 %
18.04.2022 05:04 8,0 C 7,2 C 3,9 C 60 % 1020,0 hPa 0,0 l/m 0 min 0 min 0 W/m 6,4 km/h (2 Bft) 100,00 %
18.04.2022 05:06 8,0 C 7,2 C 3,9 C 60 % 1020,0 hPa 0,0 l/m 0 min 0 min 0 W/m 9,7 km/h (2 Bft) 100,00 %
18.04.2022 05:08 8,0 C 7,2 C 3,9 C 60 % 1020,0 hPa 0,0 l/m 0 min 0 min 0 W/m 3,2 km/h (1 Bft) 100,00 %
18.04.2022 05:10 8,0 C 7,2 C 3,9 C 60 % 1020,0 hPa 0,0 l/m 0 min 0 min 0 W/m 6,4 km/h (2 Bft) 97,87 %
18.04.2022 05:12 8,0 C 7,2 C 3,9 C 60 % 1020,0 hPa 0,0 l/m 0 min 0 min 0 W/m 3,2 km/h (1 Bft) 97,87 %
18.04.2022 05:14 8,0 C 7,2 C 3,9 C 60 % 1020,0 hPa 0,0 l/m 0 min 0 min 0 W/m 12,9 km/h (3 Bft) 100,00 %
18.04.2022 05:16 7,9 C 7,2 C 3,9 C 60 % 1020,0 hPa 0,0 l/m 0 min 0 min 0 W/m 6,4 km/h (2 Bft) 100,00 %
18.04.2022 05:18 7,9 C 7,2 C 3,9 C 60 % 1020,0 hPa 0,0 l/m 0 min 0 min 0 W/m 3,2 km/h (1 Bft) 100,00 %
18.04.2022 05:20 7,9 C 7,2 C 3,9 C 60 % 1020,0 hPa 0,0 l/m 0 min 0 min 0 W/m 6,4 km/h (2 Bft) 100,00 %
18.04.2022 05:22 7,9 C 7,2 C 3,9 C 60 % 1020,0 hPa 0,0 l/m 0 min 0 min 0 W/m 6,4 km/h (2 Bft) 100,00 %
18.04.2022 05:24 7,9 C 7,2 C 3,9 C 61 % 1020,0 hPa 0,0 l/m 0 min 0 min 0 W/m 3,2 km/h (1 Bft) 100,00 %
18.04.2022 05:26 7,9 C 7,2 C 3,9 C 61 % 1020,1 hPa 0,0 l/m 0 min 0 min 0 W/m 6,4 km/h (2 Bft) 100,00 %
18.04.2022 05:28 7,9 C 7,2 C 3,9 C 61 % 1020,1 hPa 0,0 l/m 0 min 0 min 0 W/m 6,4 km/h (2 Bft) 100,00 %
18.04.2022 05:30 7,9 C 6,7 C 3,9 C 61 % 1020,1 hPa 0,0 l/m 0 min 0 min 0 W/m 3,2 km/h (1 Bft) 100,00 %
18.04.2022 05:32 7,9 C 6,7 C 3,9 C 60 % 1020,1 hPa 0,0 l/m 0 min 0 min 0 W/m 6,4 km/h (2 Bft) 100,00 %
18.04.2022 05:34 7,9 C 6,7 C 3,9 C 60 % 1020,1 hPa 0,0 l/m 0 min 0 min 0 W/m 6,4 km/h (2 Bft) 100,00 %
18.04.2022 05:36 7,8 C 6,7 C 3,9 C 60 % 1020,1 hPa 0,0 l/m 0 min 0 min 0 W/m 3,2 km/h (1 Bft) 100,00 %
18.04.2022 05:38 7,8 C 6,7 C 3,3 C 61 % 1020,1 hPa 0,0 l/m 0 min 0 min 0 W/m 3,2 km/h (1 Bft) 100,00 %
18.04.2022 05:40 7,8 C 6,7 C 3,3 C 61 % 1020,1 hPa 0,0 l/m 0 min 0 min 0 W/m 3,2 km/h (1 Bft) 100,00 %
18.04.2022 05:42 7,8 C 6,7 C 3,3 C 61 % 1020,0 hPa 0,0 l/m 0 min 0 min 0 W/m 3,2 km/h (1 Bft) 100,00 %
18.04.2022 05:44 7,7 C 6,7 C 3,3 C 61 % 1020,1 hPa 0,0 l/m 0 min 0 min 0 W/m 3,2 km/h (1 Bft) 100,00 %
18.04.2022 05:46 7,7 C 6,7 C 3,3 C 61 % 1020,1 hPa 0,0 l/m 0 min 0 min 0 W/m 12,9 km/h (3 Bft) 97,87 %
18.04.2022 05:48 7,7 C 6,7 C 3,3 C 61 % 1020,1 hPa 0,0 l/m 0 min 0 min 0 W/m 3,2 km/h (1 Bft) 100,00 %
18.04.2022 05:50 7,7 C 6,7 C 3,3 C 61 % 1020,1 hPa 0,0 l/m 0 min 0 min 0 W/m 6,4 km/h (2 Bft) 100,00 %
18.04.2022 05:52 7,6 C 6,7 C 3,3 C 61 % 1020,1 hPa 0,0 l/m 0 min 0 min 0 W/m 6,4 km/h (2 Bft) 97,83 %
18.04.2022 05:54 7,6 C 6,7 C 3,3 C 61 % 1020,0 hPa 0,0 l/m 0 min 0 min 0 W/m 3,2 km/h (1 Bft) 100,00 %
18.04.2022 05:56 7,6 C 6,1 C 3,3 C 61 % 1020,1 hPa 0,0 l/m 0 min 0 min 0 W/m 6,4 km/h (2 Bft) 100,00 %
18.04.2022 05:58 7,6 C 6,1 C 3,3 C 61 % 1020,1 hPa 0,0 l/m 0 min 0 min 0 W/m 3,2 km/h (1 Bft) 100,00 %
18.04.2022 06:00 7,6 C 6,1 C 3,3 C 61 % 1020,1 hPa 0,0 l/m 0 min 0 min 0 W/m 3,2 km/h (1 Bft) 97,87 %
18.04.2022 06:02 7,5 C 6,1 C 3,3 C 61 % 1020,0 hPa 0,0 l/m 0 min 0 min 0 W/m 6,4 km/h (2 Bft) 100,00 %
18.04.2022 06:04 7,5 C 6,1 C 3,3 C 61 % 1020,1 hPa 0,0 l/m 0 min 0 min 0 W/m 6,4 km/h (2 Bft) 100,00 %
18.04.2022 06:08 7,4 C 6,1 C 3,3 C 61 % 1020,0 hPa 0,0 l/m 0 min 0 min 0 W/m 6,4 km/h (2 Bft) 97,87 %
18.04.2022 06:10 7,4 C 6,1 C 3,3 C 62 % 1020,1 hPa 0,0 l/m 0 min 0 min 0 W/m 3,2 km/h (1 Bft) 95,74 %
18.04.2022 06:12 7,3 C 6,1 C 3,3 C 62 % 1020,1 hPa 0,0 l/m 0 min 0 min 0 W/m 3,2 km/h (1 Bft) 100,00 %
18.04.2022 06:14 7,3 C 6,1 C 2,8 C 62 % 1020,1 hPa 0,0 l/m 0 min 0 min 0 W/m 0,0 km/h (0 Bft) 95,74 %
18.04.2022 06:16 7,3 C 6,1 C 2,8 C 62 % 1020,0 hPa 0,0 l/m 0 min 0 min 0 W/m 3,2 km/h (1 Bft) 97,83 %
18.04.2022 06:18 7,3 C 6,1 C 2,8 C 62 % 1020,1 hPa 0,0 l/m 0 min 0 min 0 W/m 3,2 km/h (1 Bft) 97,87 %
18.04.2022 06:20 7,2 C 6,1 C 2,8 C 62 % 1020,1 hPa 0,0 l/m 0 min 0 min 0 W/m 3,2 km/h (1 Bft) 97,87 %
18.04.2022 06:22 7,2 C 6,1 C 2,8 C 62 % 1020,1 hPa 0,0 l/m 0 min 0 min 0 W/m 3,2 km/h (1 Bft) 97,87 %
18.04.2022 06:24 7,2 C 6,1 C 2,8 C 62 % 1020,0 hPa 0,0 l/m 0 min 0 min 0 W/m 6,4 km/h (2 Bft) 91,49 %
18.04.2022 06:26 7,2 C 6,1 C 2,8 C 62 % 1020,1 hPa 0,0 l/m 0 min 0 min 0 W/m 3,2 km/h (1 Bft) 93,62 %
18.04.2022 06:28 7,1 C 6,1 C 2,8 C 62 % 1020,1 hPa 0,0 l/m 0 min 0 min 0 W/m 6,4 km/h (2 Bft) 95,65 %
18.04.2022 06:30 7,1 C 6,1 C 2,8 C 62 % 1020,0 hPa 0,0 l/m 0 min 0 min 0 W/m 6,4 km/h (2 Bft) 95,74 %
18.04.2022 06:32 7,1 C 6,1 C 2,8 C 63 % 1020,0 hPa 0,0 l/m 0 min 0 min 0 W/m 3,2 km/h (1 Bft) 93,62 %
18.04.2022 06:34 7,1 C 6,1 C 2,8 C 63 % 1020,1 hPa 0,0 l/m 0 min 0 min 0 W/m 6,4 km/h (2 Bft) 97,87 %
18.04.2022 06:36 7,0 C 6,1 C 2,8 C 63 % 1020,1 hPa 0,0 l/m 0 min 0 min 3 W/m 6,4 km/h (2 Bft) 93,62 %
18.04.2022 06:38 7,0 C 6,1 C 2,8 C 63 % 1020,0 hPa 0,0 l/m 0 min 0 min 5 W/m 6,4 km/h (2 Bft) 93,62 %
18.04.2022 06:40 7,0 C 6,1 C 2,8 C 63 % 1020,0 hPa 0,0 l/m 0 min 0 min 5 W/m 6,4 km/h (2 Bft) 97,83 %
18.04.2022 06:42 6,9 C 6,1 C 2,8 C 64 % 1020,1 hPa 0,0 l/m 0 min 0 min 7 W/m 6,4 km/h (2 Bft) 93,62 %
18.04.2022 06:44 6,9 C 6,1 C 2,8 C 63 % 1020,1 hPa 0,0 l/m 0 min 0 min 7 W/m 3,2 km/h (1 Bft) 95,74 %
18.04.2022 06:46 6,9 C 6,1 C 2,8 C 64 % 1020,1 hPa 0,0 l/m 0 min 0 min 8 W/m 6,4 km/h (2 Bft) 95,74 %
18.04.2022 06:48 6,9 C 6,1 C 2,8 C 64 % 1020,0 hPa 0,0 l/m 0 min 0 min 9 W/m 3,2 km/h (1 Bft) 95,74 %
18.04.2022 06:50 6,9 C 6,1 C 2,8 C 64 % 1020,0 hPa 0,0 l/m 0 min 0 min 9 W/m 3,2 km/h (1 Bft) 95,74 %
18.04.2022 06:52 6,8 C 6,1 C 2,8 C 64 % 1020,1 hPa 0,0 l/m 0 min 0 min 11 W/m 6,4 km/h (2 Bft) 95,65 %
18.04.2022 06:54 6,8 C 6,1 C 2,8 C 64 % 1020,0 hPa 0,0 l/m 0 min 0 min 11 W/m 6,4 km/h (2 Bft) 95,74 %
18.04.2022 06:56 6,8 C 6,1 C 2,8 C 64 % 1020,0 hPa 0,0 l/m 0 min 0 min 11 W/m 9,7 km/h (2 Bft) 95,74 %
18.04.2022 06:58 6,8 C 6,1 C 2,8 C 64 % 1020,0 hPa 0,0 l/m 0 min 0 min 12 W/m 6,4 km/h (2 Bft) 95,74 %
18.04.2022 07:00 6,8 C 6,1 C 2,8 C 64 % 1020,1 hPa 0,0 l/m 0 min 0 min 12 W/m 3,2 km/h (1 Bft) 93,62 %
18.04.2022 07:02 6,8 C 6,1 C 2,8 C 64 % 1020,0 hPa 0,0 l/m 0 min 0 min 12 W/m 6,4 km/h (2 Bft) 95,74 %
18.04.2022 07:04 6,8 C 6,1 C 2,8 C 64 % 1020,1 hPa 0,0 l/m 0 min 0 min 13 W/m 6,4 km/h (2 Bft) 95,65 %
18.04.2022 07:06 6,8 C 6,1 C 2,8 C 65 % 1020,1 hPa 0,0 l/m 0 min 0 min 14 W/m 6,4 km/h (2 Bft) 97,87 %
18.04.2022 07:08 6,8 C 6,1 C 2,8 C 65 % 1020,1 hPa 0,0 l/m 0 min 0 min 14 W/m 12,9 km/h (3 Bft) 97,87 %
18.04.2022 07:10 6,8 C 6,1 C 2,8 C 65 % 1020,1 hPa 0,0 l/m 0 min 0 min 15 W/m 3,2 km/h (1 Bft) 97,87 %
18.04.2022 07:12 6,8 C 6,1 C 2,8 C 65 % 1020,0 hPa 0,0 l/m 0 min 0 min 16 W/m 6,4 km/h (2 Bft) 97,87 %
18.04.2022 07:14 6,8 C 6,1 C 2,8 C 64 % 1020,1 hPa 0,0 l/m 0 min 0 min 16 W/m 12,9 km/h (3 Bft) 97,87 %
18.04.2022 07:16 6,8 C 6,1 C 2,8 C 65 % 1020,1 hPa 0,0 l/m 0 min 0 min 16 W/m 6,4 km/h (2 Bft) 97,83 %
18.04.2022 07:18 6,8 C 6,1 C 2,8 C 65 % 1020,1 hPa 0,0 l/m 0 min 0 min 18 W/m 6,4 km/h (2 Bft) 95,74 %
18.04.2022 07:20 6,8 C 6,1 C 2,8 C 65 % 1020,1 hPa 0,0 l/m 0 min 0 min 18 W/m 6,4 km/h (2 Bft) 97,87 %
18.04.2022 07:22 6,8 C 6,1 C 3,3 C 65 % 1020,1 hPa 0,0 l/m 0 min 0 min 18 W/m 3,2 km/h (1 Bft) 97,87 %
18.04.2022 07:24 6,8 C 6,1 C 3,3 C 65 % 1020,0 hPa 0,0 l/m 0 min 0 min 18 W/m 12,9 km/h (3 Bft) 100,00 %
18.04.2022 07:26 6,8 C 6,1 C 3,3 C 65 % 1020,1 hPa 0,0 l/m 0 min 0 min 18 W/m 6,4 km/h (2 Bft) 100,00 %
18.04.2022 07:28 6,8 C 6,1 C 3,3 C 65 % 1020,1 hPa 0,0 l/m 0 min 0 min 19 W/m 6,4 km/h (2 Bft) 97,83 %
18.04.2022 07:30 6,8 C 6,1 C 3,3 C 65 % 1020,1 hPa 0,0 l/m 0 min 0 min 19 W/m 3,2 km/h (1 Bft) 100,00 %
18.04.2022 07:32 6,9 C 6,1 C 3,3 C 65 % 1020,1 hPa 0,0 l/m 0 min 0 min 21 W/m 12,9 km/h (3 Bft) 100,00 %
18.04.2022 07:34 6,9 C 6,7 C 3,3 C 65 % 1020,2 hPa 0,0 l/m 0 min 0 min 21 W/m 12,9 km/h (3 Bft) 100,00 %
18.04.2022 07:36 6,9 C 6,7 C 3,3 C 65 % 1020,2 hPa 0,0 l/m 0 min 0 min 21 W/m 12,9 km/h (3 Bft) 97,87 %
18.04.2022 07:38 6,9 C 6,7 C 3,3 C 65 % 1020,3 hPa 0,0 l/m 0 min 0 min 21 W/m 12,9 km/h (3 Bft) 100,00 %
18.04.2022 07:40 7,0 C 6,7 C 3,3 C 65 % 1020,2 hPa 0,0 l/m 0 min 0 min 22 W/m 12,9 km/h (3 Bft) 100,00 %
18.04.2022 07:42 7,1 C 6,7 C 3,3 C 65 % 1020,3 hPa 0,0 l/m 0 min 0 min 23 W/m 12,9 km/h (3 Bft) 100,00 %
18.04.2022 07:44 7,1 C 6,7 C 3,3 C 65 % 1020,3 hPa 0,0 l/m 0 min 0 min 23 W/m 12,9 km/h (3 Bft) 97,87 %
18.04.2022 07:46 7,2 C 7,2 C 3,3 C 65 % 1020,3 hPa 0,0 l/m 0 min 0 min 24 W/m 12,9 km/h (3 Bft) 100,00 %
18.04.2022 07:48 7,2 C 7,2 C 3,3 C 65 % 1020,3 hPa 0,0 l/m 0 min 0 min 25 W/m 12,9 km/h (3 Bft) 97,87 %
18.04.2022 07:50 7,2 C 7,2 C 3,3 C 65 % 1020,3 hPa 0,0 l/m 0 min 0 min 25 W/m 6,4 km/h (2 Bft) 97,87 %
18.04.2022 07:52 7,3 C 7,2 C 3,9 C 65 % 1020,3 hPa 0,0 l/m 0 min 0 min 25 W/m 6,4 km/h (2 Bft) 97,83 %
18.04.2022 07:54 7,3 C 7,2 C 3,9 C 65 % 1020,3 hPa 0,0 l/m 0 min 0 min 25 W/m 12,9 km/h (3 Bft) 97,87 %
18.04.2022 07:56 7,4 C 7,2 C 3,9 C 64 % 1020,3 hPa 0,0 l/m 0 min 0 min 25 W/m 12,9 km/h (3 Bft) 95,74 %
18.04.2022 07:58 7,4 C 7,2 C 3,9 C 65 % 1020,3 hPa 0,0 l/m 0 min 0 min 26 W/m 12,9 km/h (3 Bft) 97,87 %
18.04.2022 08:00 7,6 C 7,2 C 3,9 C 65 % 1020,4 hPa 0,0 l/m 0 min 0 min 26 W/m 12,9 km/h (3 Bft) 97,87 %
18.04.2022 08:02 7,6 C 7,2 C 3,9 C 65 % 1020,3 hPa 0,0 l/m 0 min 0 min 26 W/m 16,1 km/h (3 Bft) 97,83 %
18.04.2022 08:04 7,7 C 7,2 C 3,9 C 64 % 1020,4 hPa 0,0 l/m 0 min 0 min 26 W/m 9,7 km/h (2 Bft) 95,74 %
18.04.2022 08:06 7,7 C 7,2 C 3,9 C 64 % 1020,4 hPa 0,0 l/m 0 min 0 min 28 W/m 12,9 km/h (3 Bft) 95,74 %
18.04.2022 08:08 7,8 C 7,8 C 3,9 C 64 % 1020,4 hPa 0,0 l/m 0 min 0 min 28 W/m 16,1 km/h (3 Bft) 95,74 %
18.04.2022 08:10 7,8 C 7,8 C 3,9 C 64 % 1020,4 hPa 0,0 l/m 0 min 0 min 28 W/m 19,3 km/h (3 Bft) 97,87 %
18.04.2022 08:12 7,8 C 7,8 C 3,9 C 65 % 1020,4 hPa 0,0 l/m 0 min 0 min 28 W/m 12,9 km/h (3 Bft) 95,74 %
18.04.2022 08:14 7,9 C 7,8 C 3,9 C 65 % 1020,3 hPa 0,0 l/m 0 min 0 min 28 W/m 6,4 km/h (2 Bft) 95,65 %
18.04.2022 08:16 7,9 C 7,8 C 3,9 C 65 % 1020,3 hPa 0,0 l/m 0 min 0 min 30 W/m 6,4 km/h (2 Bft) 95,74 %
18.04.2022 08:18 8,0 C 7,8 C 4,4 C 64 % 1020,3 hPa 0,0 l/m 0 min 0 min 30 W/m 6,4 km/h (2 Bft) 97,87 %
18.04.2022 08:20 8,1 C 7,8 C 4,4 C 65 % 1020,3 hPa 0,0 l/m 0 min 0 min 30 W/m 12,9 km/h (3 Bft) 100,00 %
18.04.2022 08:22 8,1 C 7,8 C 4,4 C 64 % 1020,4 hPa 0,0 l/m 0 min 0 min 30 W/m 6,4 km/h (2 Bft) 100,00 %
18.04.2022 08:24 8,2 C 7,8 C 4,4 C 64 % 1020,3 hPa 0,0 l/m 0 min 0 min 32 W/m 6,4 km/h (2 Bft) 100,00 %
18.04.2022 08:26 8,2 C 8,3 C 4,4 C 64 % 1020,3 hPa 0,0 l/m 0 min 0 min 32 W/m 16,1 km/h (3 Bft) 93,48 %
18.04.2022 08:28 8,3 C 8,3 C 4,4 C 64 % 1020,3 hPa 0,0 l/m 0 min 0 min 32 W/m 19,3 km/h (3 Bft) 100,00 %
18.04.2022 08:30 8,4 C 8,3 C 4,4 C 63 % 1020,4 hPa 0,0 l/m 0 min 0 min 32 W/m 16,1 km/h (3 Bft) 95,74 %
18.04.2022 08:32 8,5 C 8,3 C 4,4 C 63 % 1020,4 hPa 0,0 l/m 0 min 0 min 33 W/m 9,7 km/h (2 Bft) 97,87 %
18.04.2022 08:34 8,6 C 8,3 C 5,0 C 63 % 1020,4 hPa 0,0 l/m 0 min 0 min 33 W/m 16,1 km/h (3 Bft) 95,74 %
18.04.2022 08:36 8,7 C 8,3 C 5,0 C 63 % 1020,4 hPa 0,0 l/m 0 min 0 min 33 W/m 16,1 km/h (3 Bft) 95,74 %
18.04.2022 08:38 8,8 C 8,3 C 5,0 C 63 % 1020,3 hPa 0,0 l/m 0 min 0 min 33 W/m 12,9 km/h (3 Bft) 95,65 %
18.04.2022 08:40 8,8 C 8,9 C 5,0 C 63 % 1020,4 hPa 0,0 l/m 0 min 0 min 34 W/m 12,9 km/h (3 Bft) 100,00 %
18.04.2022 08:42 8,9 C 8,9 C 5,0 C 62 % 1020,4 hPa 0,0 l/m 0 min 0 min 35 W/m 19,3 km/h (3 Bft) 93,62 %
18.04.2022 08:44 9,0 C 8,9 C 5,0 C 62 % 1020,3 hPa 0,0 l/m 0 min 0 min 103 W/m 12,9 km/h (3 Bft) 97,87 %
18.04.2022 08:46 9,1 C 8,9 C 5,0 C 62 % 1020,4 hPa 0,0 l/m 2 min 0 min 292 W/m 12,9 km/h (3 Bft) 95,74 %
18.04.2022 08:48 9,2 C 8,9 C 5,0 C 62 % 1020,4 hPa 0,0 l/m 2 min 0 min 333 W/m 16,1 km/h (3 Bft) 97,87 %
18.04.2022 08:50 9,2 C 8,9 C 5,0 C 62 % 1020,4 hPa 0,0 l/m 2 min 0 min 338 W/m 12,9 km/h (3 Bft) 95,65 %
18.04.2022 08:52 9,3 C 9,4 C 5,6 C 62 % 1020,4 hPa 0,0 l/m 2 min 0 min 345 W/m 16,1 km/h (3 Bft) 97,87 %
18.04.2022 08:54 9,4 C 9,4 C 5,6 C 61 % 1020,4 hPa 0,0 l/m 2 min 0 min 352 W/m 12,9 km/h (3 Bft) 97,87 %
18.04.2022 08:56 9,5 C 9,4 C 5,6 C 61 % 1020,4 hPa 0,0 l/m 2 min 0 min 357 W/m 16,1 km/h (3 Bft) 100,00 %
18.04.2022 08:58 9,6 C 10,0 C 5,6 C 61 % 1020,4 hPa 0,0 l/m 2 min 0 min 363 W/m 12,9 km/h (3 Bft) 100,00 %
18.04.2022 09:00 9,8 C 11,1 C 5,6 C 61 % 1020,4 hPa 0,0 l/m 2 min 0 min 369 W/m 19,3 km/h (3 Bft) 95,74 %
18.04.2022 09:02 9,9 C 11,1 C 5,6 C 61 % 1020,4 hPa 0,0 l/m 2 min 0 min 374 W/m 9,7 km/h (2 Bft) 100,00 %
18.04.2022 09:04 10,1 C 13,3 C 5,6 C 60 % 1020,4 hPa 0,0 l/m 2 min 0 min 381 W/m 16,1 km/h (3 Bft) 100,00 %
18.04.2022 09:06 10,3 C 14,4 C 5,6 C 60 % 1020,4 hPa 0,0 l/m 2 min 0 min 388 W/m 16,1 km/h (3 Bft) 100,00 %
18.04.2022 09:08 10,4 C 14,4 C 5,6 C 59 % 1020,5 hPa 0,0 l/m 2 min 0 min 394 W/m 22,5 km/h (4 Bft) 100,00 %
18.04.2022 09:10 10,6 C 15,0 C 5,6 C 58 % 1020,5 hPa 0,0 l/m 2 min 0 min 399 W/m 19,3 km/h (3 Bft) 100,00 %
18.04.2022 09:12 10,8 C 15,0 C 6,1 C 58 % 1020,4 hPa 0,0 l/m 2 min 0 min 406 W/m 19,3 km/h (3 Bft) 100,00 %
18.04.2022 09:14 10,9 C 15,6 C 6,1 C 58 % 1020,5 hPa 0,0 l/m 2 min 0 min 411 W/m 12,9 km/h (3 Bft) 97,87 %
18.04.2022 09:16 11,1 C 16,1 C 6,7 C 58 % 1020,4 hPa 0,0 l/m 2 min 0 min 417 W/m 12,9 km/h (3 Bft) 97,83 %
18.04.2022 09:18 11,2 C 15,6 C 6,7 C 58 % 1020,5 hPa 0,0 l/m 2 min 0 min 423 W/m 19,3 km/h (3 Bft) 97,87 %
18.04.2022 09:20 11,3 C 16,1 C 7,2 C 57 % 1020,5 hPa 0,0 l/m 2 min 0 min 429 W/m 16,1 km/h (3 Bft) 95,74 %
18.04.2022 09:22 11,4 C 16,1 C 7,2 C 57 % 1020,4 hPa 0,0 l/m 2 min 0 min 434 W/m 12,9 km/h (3 Bft) 95,74 %
18.04.2022 09:24 11,6 C 16,7 C 7,2 C 57 % 1020,4 hPa 0,0 l/m 2 min 0 min 440 W/m 12,9 km/h (3 Bft) 95,74 %
18.04.2022 09:26 11,7 C 17,2 C 7,8 C 57 % 1020,5 hPa 0,0 l/m 2 min 0 min 447 W/m 16,1 km/h (3 Bft) 95,74 %
18.04.2022 09:28 11,8 C 18,3 C 7,8 C 57 % 1020,5 hPa 0,0 l/m 2 min 0 min 453 W/m 6,4 km/h (2 Bft) 95,65 %
18.04.2022 09:30 12,0 C 18,3 C 7,8 C 57 % 1020,5 hPa 0,0 l/m 2 min 0 min 458 W/m 9,7 km/h (2 Bft) 95,74 %
18.04.2022 09:32 12,2 C 18,9 C 7,8 C 56 % 1020,5 hPa 0,0 l/m 2 min 0 min 464 W/m 12,9 km/h (3 Bft) 93,62 %
18.04.2022 09:34 12,3 C 18,9 C 7,8 C 56 % 1020,5 hPa 0,0 l/m 2 min 0 min 469 W/m 16,1 km/h (3 Bft) 95,74 %
18.04.2022 09:36 12,4 C 18,3 C 8,3 C 55 % 1020,4 hPa 0,0 l/m 2 min 0 min 476 W/m 19,3 km/h (3 Bft) 94,83 %
18.04.2022 09:38 12,6 C 17,2 C 7,8 C 54 % 1020,4 hPa 0,0 l/m 2 min 0 min 480 W/m 16,1 km/h (3 Bft) 94,44 %
18.04.2022 09:40 12,7 C 17,2 C 7,8 C 54 % 1020,4 hPa 0,0 l/m 2 min 0 min 486 W/m 6,4 km/h (2 Bft) 93,48 %
18.04.2022 09:42 12,8 C 17,2 C 7,8 C 55 % 1020,4 hPa 0,0 l/m 2 min 0 min 491 W/m 16,1 km/h (3 Bft) 93,62 %
18.04.2022 09:44 12,8 C 17,2 C 7,8 C 54 % 1020,4 hPa 0,0 l/m 2 min 0 min 497 W/m 19,3 km/h (3 Bft) 95,74 %
18.04.2022 09:46 12,9 C 17,2 C 7,8 C 54 % 1020,4 hPa 0,0 l/m 2 min 0 min 502 W/m 12,9 km/h (3 Bft) 93,62 %
18.04.2022 09:48 13,0 C 17,8 C 7,8 C 54 % 1020,3 hPa 0,0 l/m 2 min 0 min 508 W/m 19,3 km/h (3 Bft) 95,74 %
18.04.2022 09:50 13,1 C 17,8 C 7,8 C 53 % 1020,4 hPa 0,0 l/m 2 min 0 min 514 W/m 12,9 km/h (3 Bft) 95,74 %
18.04.2022 09:52 13,1 C 17,8 C 8,3 C 53 % 1020,4 hPa 0,0 l/m 2 min 0 min 519 W/m 12,9 km/h (3 Bft) 95,65 %
18.04.2022 09:54 13,2 C 17,8 C 8,3 C 53 % 1020,4 hPa 0,0 l/m 2 min 0 min 525 W/m 9,7 km/h (2 Bft) 95,74 %
18.04.2022 09:56 13,3 C 17,8 C 8,3 C 53 % 1020,4 hPa 0,0 l/m 2 min 0 min 530 W/m 16,1 km/h (3 Bft) 93,62 %
18.04.2022 09:58 13,3 C 17,8 C 8,3 C 53 % 1020,4 hPa 0,0 l/m 2 min 0 min 535 W/m 12,9 km/h (3 Bft) 91,49 %
18.04.2022 10:00 13,4 C 17,8 C 8,3 C 53 % 1020,4 hPa 0,0 l/m 2 min 0 min 539 W/m 16,1 km/h (3 Bft) 93,62 %
18.04.2022 10:02 13,5 C 18,3 C 8,3 C 52 % 1020,4 hPa 0,0 l/m 2 min 0 min 543 W/m 16,1 km/h (3 Bft) 93,62 %
18.04.2022 10:04 13,6 C 18,3 C 8,3 C 52 % 1020,4 hPa 0,0 l/m 2 min 0 min 507 W/m 19,3 km/h (3 Bft) 95,65 %
18.04.2022 10:06 13,7 C 18,3 C 8,3 C 52 % 1020,4 hPa 0,0 l/m 2 min 0 min 438 W/m 19,3 km/h (3 Bft) 95,74 %
18.04.2022 10:08 13,7 C 18,9 C 8,9 C 51 % 1020,4 hPa 0,0 l/m 0 min 0 min 235 W/m 16,1 km/h (3 Bft) 95,74 %
18.04.2022 10:10 13,8 C 18,9 C 8,9 C 51 % 1020,3 hPa 0,0 l/m 2 min 0 min 281 W/m 12,9 km/h (3 Bft) 93,62 %
18.04.2022 10:12 13,8 C 18,9 C 8,9 C 50 % 1020,3 hPa 0,0 l/m 2 min 0 min 308 W/m 16,1 km/h (3 Bft) 95,74 %
18.04.2022 10:14 13,9 C 17,8 C 8,9 C 49 % 1020,3 hPa 0,0 l/m 0 min 0 min 116 W/m 16,1 km/h (3 Bft) 95,74 %
18.04.2022 10:16 13,9 C 17,8 C 8,9 C 50 % 1020,3 hPa 0,0 l/m 0 min 0 min 79 W/m 16,1 km/h (3 Bft) 93,48 %
18.04.2022 10:18 14,0 C 18,9 C 9,4 C 50 % 1020,3 hPa 0,0 l/m 0 min 0 min 79 W/m 12,9 km/h (3 Bft) 95,74 %
18.04.2022 10:20 14,1 C 18,3 C 10,6 C 50 % 1020,3 hPa 0,0 l/m 0 min 0 min 159 W/m 16,1 km/h (3 Bft) 95,74 %
18.04.2022 10:22 14,2 C 18,3 C 11,1 C 50 % 1020,3 hPa 0,0 l/m 2 min 0 min 320 W/m 16,1 km/h (3 Bft) 95,74 %
18.04.2022 10:24 14,3 C 17,8 C 11,7 C 50 % 1020,3 hPa 0,0 l/m 2 min 0 min 276 W/m 16,1 km/h (3 Bft) 95,74 %
18.04.2022 10:26 14,3 C 17,8 C 12,2 C 50 % 1020,3 hPa 0,0 l/m 0 min 0 min 214 W/m 9,7 km/h (2 Bft) 95,74 %
18.04.2022 10:28 14,3 C 17,2 C 11,7 C 50 % 1020,3 hPa 0,0 l/m 2 min 0 min 355 W/m 12,9 km/h (3 Bft) 95,65 %
18.04.2022 10:30 14,3 C 17,2 C 11,1 C 49 % 1020,3 hPa 0,0 l/m 2 min 0 min 320 W/m 16,1 km/h (3 Bft) 93,62 %
18.04.2022 10:32 14,3 C 17,8 C 11,1 C 49 % 1020,2 hPa 0,0 l/m 2 min 0 min 492 W/m 12,9 km/h (3 Bft) 95,74 %
18.04.2022 10:34 14,3 C 17,2 C 11,7 C 49 % 1020,2 hPa 0,0 l/m 2 min 0 min 623 W/m 16,1 km/h (3 Bft) 95,74 %
18.04.2022 10:36 14,3 C 17,2 C 11,7 C 49 % 1020,2 hPa 0,0 l/m 2 min 0 min 630 W/m 12,9 km/h (3 Bft) 97,87 %
18.04.2022 10:38 14,4 C 17,2 C 11,7 C 50 % 1020,2 hPa 0,0 l/m 2 min 0 min 635 W/m 12,9 km/h (3 Bft) 97,87 %
18.04.2022 10:40 14,5 C 17,2 C 11,7 C 50 % 1020,2 hPa 0,0 l/m 2 min 0 min 639 W/m 6,4 km/h (2 Bft) 100,00 %
18.04.2022 10:42 14,6 C 17,2 C 11,7 C 50 % 1020,2 hPa 0,0 l/m 2 min 0 min 643 W/m 12,9 km/h (3 Bft) 97,87 %
18.04.2022 10:44 14,6 C 17,8 C 11,1 C 49 % 1020,2 hPa 0,0 l/m 2 min 0 min 647 W/m 16,1 km/h (3 Bft) 97,87 %
18.04.2022 10:46 14,6 C 17,2 C 11,1 C 49 % 1020,2 hPa 0,0 l/m 2 min 0 min 651 W/m 12,9 km/h (3 Bft) 97,87 %
18.04.2022 10:48 14,6 C 17,2 C 10,6 C 50 % 1020,2 hPa 0,0 l/m 2 min 0 min 655 W/m 9,7 km/h (2 Bft) 97,87 %
18.04.2022 10:50 14,7 C 17,2 C 10,6 C 50 % 1020,2 hPa 0,0 l/m 2 min 0 min 659 W/m 16,1 km/h (3 Bft) 97,87 %
18.04.2022 10:52 14,7 C 16,7 C 10,6 C 50 % 1020,2 hPa 0,0 l/m 2 min 0 min 615 W/m 12,9 km/h (3 Bft) 97,83 %
18.04.2022 10:54 14,7 C 16,1 C 11,1 C 50 % 1020,1 hPa 0,0 l/m 2 min 0 min 615 W/m 6,4 km/h (2 Bft) 98,00 %
18.04.2022 10:56 14,8 C 16,1 C 11,1 C 49 % 1020,1 hPa 0,0 l/m 0 min 0 min 220 W/m 12,9 km/h (3 Bft) 97,87 %
18.04.2022 10:58 14,8 C 16,1 C 10,6 C 50 % 1020,1 hPa 0,0 l/m 2 min 0 min 662 W/m 12,9 km/h (3 Bft) 100,00 %
18.04.2022 11:00 14,8 C 16,1 C 10,6 C 50 % 1020,1 hPa 0,0 l/m 2 min 0 min 680 W/m 6,4 km/h (2 Bft) 100,00 %
18.04.2022 11:02 14,9 C 16,7 C 10,6 C 51 % 1020,1 hPa 0,0 l/m 2 min 0 min 687 W/m 6,4 km/h (2 Bft) 100,00 %
18.04.2022 11:04 14,9 C 16,7 C 10,6 C 50 % 1020,0 hPa 0,0 l/m 2 min 0 min 692 W/m 12,9 km/h (3 Bft) 100,00 %
18.04.2022 11:06 14,9 C 16,1 C 10,6 C 49 % 1020,0 hPa 0,0 l/m 2 min 0 min 698 W/m 12,9 km/h (3 Bft) 100,00 %
18.04.2022 11:08 14,9 C 16,1 C 10,6 C 49 % 1020,0 hPa 0,0 l/m 2 min 0 min 703 W/m 9,7 km/h (2 Bft) 100,00 %
18.04.2022 11:10 14,9 C 16,1 C 10,6 C 49 % 1020,0 hPa 0,0 l/m 2 min 0 min 706 W/m 12,9 km/h (3 Bft) 97,87 %
18.04.2022 11:12 15,0 C 16,1 C 10,6 C 50 % 1020,0 hPa 0,0 l/m 2 min 0 min 708 W/m 9,7 km/h (2 Bft) 100,00 %
18.04.2022 11:14 15,1 C 15,6 C 10,6 C 49 % 1020,0 hPa 0,0 l/m 2 min 0 min 714 W/m 16,1 km/h (3 Bft) 100,00 %
18.04.2022 11:16 15,1 C 15,6 C 10,6 C 49 % 1020,0 hPa 0,0 l/m 2 min 0 min 718 W/m 9,7 km/h (2 Bft) 100,00 %
18.04.2022 11:18 15,2 C 16,1 C 10,6 C 49 % 1019,9 hPa 0,0 l/m 2 min 0 min 721 W/m 12,9 km/h (3 Bft) 100,00 %
18.04.2022 11:20 15,2 C 16,1 C 11,1 C 49 % 1019,9 hPa 0,0 l/m 2 min 0 min 725 W/m 19,3 km/h (3 Bft) 100,00 %
18.04.2022 11:22 15,3 C 16,7 C 11,1 C 49 % 1019,9 hPa 0,0 l/m 2 min 0 min 732 W/m 6,4 km/h (2 Bft) 100,00 %
18.04.2022 11:24 15,4 C 16,7 C 11,7 C 49 % 1019,9 hPa 0,0 l/m 2 min 0 min 734 W/m 16,1 km/h (3 Bft) 100,00 %
18.04.2022 11:26 15,5 C 17,2 C 12,8 C 49 % 1019,9 hPa 0,0 l/m 2 min 0 min 738 W/m 12,9 km/h (3 Bft) 100,00 %
18.04.2022 11:28 15,6 C 17,8 C 12,8 C 49 % 1019,9 hPa 0,0 l/m 2 min 0 min 743 W/m 9,7 km/h (2 Bft) 100,00 %
18.04.2022 11:30 15,7 C 17,8 C 12,8 C 49 % 1019,9 hPa 0,0 l/m 2 min 0 min 746 W/m 12,9 km/h (3 Bft) 100,00 %
18.04.2022 11:32 15,8 C 18,3 C 12,8 C 49 % 1019,8 hPa 0,0 l/m 2 min 0 min 747 W/m 6,4 km/h (2 Bft) 100,00 %
18.04.2022 11:34 15,8 C 18,3 C 12,8 C 48 % 1019,8 hPa 0,0 l/m 2 min 0 min 751 W/m 12,9 km/h (3 Bft) 100,00 %
18.04.2022 11:36 15,9 C 18,3 C 12,8 C 48 % 1019,8 hPa 0,0 l/m 2 min 0 min 754 W/m 12,9 km/h (3 Bft) 100,00 %
18.04.2022 11:38 15,9 C 18,3 C 12,8 C 48 % 1019,8 hPa 0,0 l/m 2 min 0 min 758 W/m 6,4 km/h (2 Bft) 100,00 %
18.04.2022 11:40 16,0 C 18,9 C 13,9 C 49 % 1019,7 hPa 0,0 l/m 2 min 0 min 760 W/m 6,4 km/h (2 Bft) 97,87 %
18.04.2022 11:42 16,1 C 18,3 C 15,0 C 48 % 1019,8 hPa 0,0 l/m 2 min 0 min 765 W/m 9,7 km/h (2 Bft) 100,00 %
18.04.2022 11:44 16,2 C 18,9 C 16,7 C 48 % 1019,8 hPa 0,0 l/m 2 min 0 min 769 W/m 6,4 km/h (2 Bft) 100,00 %
18.04.2022 11:46 16,3 C 18,9 C 17,2 C 48 % 1019,7 hPa 0,0 l/m 2 min 0 min 774 W/m 12,9 km/h (3 Bft) 100,00 %
18.04.2022 11:48 16,4 C 18,9 C 17,2 C 47 % 1019,7 hPa 0,0 l/m 2 min 0 min 775 W/m 6,4 km/h (2 Bft) 97,83 %
18.04.2022 11:50 16,5 C 18,9 C 17,2 C 47 % 1019,7 hPa 0,0 l/m 2 min 0 min 781 W/m 9,7 km/h (2 Bft) 97,87 %
18.04.2022 11:52 16,6 C 19,4 C 17,2 C 47 % 1019,7 hPa 0,0 l/m 2 min 0 min 782 W/m 6,4 km/h (2 Bft) 100,00 %
18.04.2022 11:54 16,7 C 19,4 C 17,8 C 47 % 1019,7 hPa 0,0 l/m 2 min 0 min 786 W/m 16,1 km/h (3 Bft) 97,87 %
18.04.2022 11:56 16,8 C 20,0 C 18,3 C 47 % 1019,7 hPa 0,0 l/m 2 min 0 min 787 W/m 9,7 km/h (2 Bft) 95,74 %
18.04.2022 11:58 16,8 C 20,6 C 18,3 C 46 % 1019,6 hPa 0,0 l/m 2 min 0 min 792 W/m 9,7 km/h (2 Bft) 95,74 %
18.04.2022 12:00 16,9 C 20,6 C 18,9 C 46 % 1019,6 hPa 0,0 l/m 2 min 0 min 796 W/m 16,1 km/h (3 Bft) 95,65 %
18.04.2022 12:02 17,0 C 20,6 C 18,9 C 46 % 1019,6 hPa 0,0 l/m 2 min 0 min 797 W/m 9,7 km/h (2 Bft) 95,74 %
18.04.2022 12:04 17,1 C 21,1 C 20,0 C 45 % 1019,5 hPa 0,0 l/m 2 min 0 min 803 W/m 6,4 km/h (2 Bft) 95,74 %
18.04.2022 12:08 17,3 C 20,6 C 20,6 C 44 % 1019,5 hPa 0,0 l/m 4 min 0 min 807 W/m 16,1 km/h (3 Bft) 95,74 %
18.04.2022 12:10 17,4 C 21,1 C 20,6 C 43 % 1019,5 hPa 0,0 l/m 2 min 0 min 808 W/m 12,9 km/h (3 Bft) 95,74 %
18.04.2022 12:12 17,5 C 21,7 C 21,1 C 43 % 1019,4 hPa 0,0 l/m 2 min 0 min 809 W/m 9,7 km/h (2 Bft) 93,48 %
18.04.2022 12:14 17,6 C 21,7 C 21,7 C 43 % 1019,5 hPa 0,0 l/m 2 min 0 min 813 W/m 16,1 km/h (3 Bft) 95,74 %
18.04.2022 12:16 17,7 C 22,2 C 21,7 C 43 % 1019,4 hPa 0,0 l/m 2 min 0 min 816 W/m 6,4 km/h (2 Bft) 95,74 %
18.04.2022 12:18 17,9 C 22,8 C 21,7 C 43 % 1019,4 hPa 0,0 l/m 2 min 0 min 817 W/m 16,1 km/h (3 Bft) 95,74 %
18.04.2022 12:20 18,0 C 22,2 C 21,1 C 43 % 1019,4 hPa 0,0 l/m 2 min 0 min 817 W/m 12,9 km/h (3 Bft) 95,74 %
18.04.2022 12:22 18,0 C 22,2 C 20,0 C 43 % 1019,4 hPa 0,0 l/m 2 min 0 min 821 W/m 16,1 km/h (3 Bft) 95,74 %
18.04.2022 12:24 18,1 C 22,2 C 20,0 C 43 % 1019,4 hPa 0,0 l/m 2 min 0 min 824 W/m 6,4 km/h (2 Bft) 93,48 %
18.04.2022 12:26 18,2 C 22,2 C 21,1 C 42 % 1019,4 hPa 0,0 l/m 2 min 0 min 826 W/m 9,7 km/h (2 Bft) 95,74 %
18.04.2022 12:28 18,3 C 23,3 C 21,1 C 42 % 1019,4 hPa 0,0 l/m 2 min 0 min 827 W/m 9,7 km/h (2 Bft) 95,74 %
18.04.2022 12:30 18,4 C 23,3 C 21,7 C 41 % 1019,4 hPa 0,0 l/m 2 min 0 min 830 W/m 12,9 km/h (3 Bft) 93,62 %
18.04.2022 12:32 18,5 C 23,3 C 22,8 C 40 % 1019,3 hPa 0,0 l/m 2 min 0 min 837 W/m 6,4 km/h (2 Bft) 95,74 %
18.04.2022 12:34 18,6 C 22,8 C 22,8 C 40 % 1019,4 hPa 0,0 l/m 2 min 0 min 836 W/m 12,9 km/h (3 Bft) 95,74 %
18.04.2022 12:36 18,6 C 22,2 C 22,2 C 40 % 1019,3 hPa 0,0 l/m 2 min 0 min 838 W/m 16,1 km/h (3 Bft) 97,83 %
18.04.2022 12:38 18,6 C 22,8 C 22,2 C 41 % 1019,3 hPa 0,0 l/m 2 min 0 min 806 W/m 12,9 km/h (3 Bft) 97,87 %
18.04.2022 12:40 18,7 C 23,3 C 22,2 C 41 % 1019,3 hPa 0,0 l/m 2 min 0 min 819 W/m 9,7 km/h (2 Bft) 100,00 %
18.04.2022 12:42 18,8 C 22,8 C 22,2 C 40 % 1019,2 hPa 0,0 l/m 2 min 0 min 831 W/m 9,7 km/h (2 Bft) 97,87 %
18.04.2022 12:44 18,9 C 23,9 C 22,2 C 41 % 1019,2 hPa 0,0 l/m 2 min 0 min 835 W/m 6,4 km/h (2 Bft) 100,00 %
18.04.2022 12:46 19,0 C 23,9 C 21,1 C 43 % 1019,2 hPa 0,0 l/m 2 min 0 min 842 W/m 12,9 km/h (3 Bft) 100,00 %
18.04.2022 12:48 19,1 C 23,9 C 19,4 C 41 % 1019,2 hPa 0,0 l/m 2 min 0 min 846 W/m 9,7 km/h (2 Bft) 100,00 %
18.04.2022 12:50 19,1 C 23,9 C 18,9 C 41 % 1019,2 hPa 0,0 l/m 2 min 0 min 844 W/m 6,4 km/h (2 Bft) 97,87 %
18.04.2022 12:52 19,1 C 23,3 C 18,3 C 39 % 1019,2 hPa 0,0 l/m 2 min 0 min 848 W/m 12,9 km/h (3 Bft) 100,00 %
18.04.2022 12:54 19,1 C 23,3 C 17,2 C 39 % 1019,1 hPa 0,0 l/m 2 min 0 min 850 W/m 12,9 km/h (3 Bft) 100,00 %
18.04.2022 12:56 19,2 C 23,3 C 16,7 C 39 % 1019,1 hPa 0,0 l/m 2 min 0 min 851 W/m 9,7 km/h (2 Bft) 100,00 %
18.04.2022 12:58 19,2 C 23,3 C 16,1 C 39 % 1019,1 hPa 0,0 l/m 2 min 0 min 852 W/m 16,1 km/h (3 Bft) 100,00 %
18.04.2022 13:00 19,3 C 23,3 C 15,0 C 39 % 1019,1 hPa 0,0 l/m 2 min 0 min 854 W/m 12,9 km/h (3 Bft) 100,00 %
18.04.2022 13:02 19,2 C 22,8 C 15,0 C 39 % 1019,1 hPa 0,0 l/m 2 min 0 min 855 W/m 12,9 km/h (3 Bft) 100,00 %
18.04.2022 13:04 19,2 C 23,3 C 14,4 C 39 % 1019,1 hPa 0,0 l/m 2 min 0 min 855 W/m 9,7 km/h (2 Bft) 100,00 %
18.04.2022 13:06 19,1 C 23,3 C 14,4 C 39 % 1019,1 hPa 0,0 l/m 2 min 0 min 862 W/m 6,4 km/h (2 Bft) 100,00 %
18.04.2022 13:08 19,2 C 23,9 C 14,4 C 39 % 1019,1 hPa 0,0 l/m 2 min 0 min 852 W/m 6,4 km/h (2 Bft) 100,00 %
18.04.2022 13:10 19,3 C 23,3 C 14,4 C 38 % 1019,0 hPa 0,0 l/m 2 min 0 min 856 W/m 19,3 km/h (3 Bft) 100,00 %
18.04.2022 13:12 19,3 C 23,3 C 13,9 C 39 % 1019,0 hPa 0,0 l/m 2 min 0 min 855 W/m 9,7 km/h (2 Bft) 100,00 %
18.04.2022 13:14 19,4 C 23,3 C 13,9 C 39 % 1019,0 hPa 0,0 l/m 2 min 0 min 858 W/m 9,7 km/h (2 Bft) 100,00 %
18.04.2022 13:16 19,4 C 23,9 C 13,9 C 40 % 1019,0 hPa 0,0 l/m 2 min 0 min 863 W/m 16,1 km/h (3 Bft) 100,00 %
18.04.2022 13:18 19,6 C 23,9 C 14,4 C 40 % 1019,0 hPa 0,0 l/m 2 min 0 min 873 W/m 9,7 km/h (2 Bft) 97,87 %
18.04.2022 13:20 19,7 C 24,4 C 14,4 C 41 % 1019,0 hPa 0,0 l/m 2 min 0 min 868 W/m 9,7 km/h (2 Bft) 100,00 %
18.04.2022 13:22 19,7 C 24,4 C 14,4 C 40 % 1019,0 hPa 0,0 l/m 2 min 0 min 876 W/m 12,9 km/h (3 Bft) 100,00 %
18.04.2022 13:24 19,7 C 23,3 C 14,4 C 38 % 1019,0 hPa 0,0 l/m 2 min 0 min 869 W/m 12,9 km/h (3 Bft) 100,00 %
18.04.2022 13:26 19,7 C 23,3 C 14,4 C 38 % 1019,0 hPa 0,0 l/m 2 min 0 min 868 W/m 12,9 km/h (3 Bft) 100,00 %
18.04.2022 13:28 19,7 C 23,3 C 14,4 C 37 % 1019,0 hPa 0,0 l/m 2 min 0 min 870 W/m 12,9 km/h (3 Bft) 100,00 %
18.04.2022 13:30 19,7 C 23,3 C 14,4 C 37 % 1019,0 hPa 0,0 l/m 2 min 0 min 865 W/m 6,4 km/h (2 Bft) 100,00 %
18.04.2022 13:32 19,7 C 23,3 C 13,9 C 37 % 1018,9 hPa 0,0 l/m 2 min 0 min 861 W/m 9,7 km/h (2 Bft) 97,87 %
18.04.2022 13:35 19,7 C 23,3 C 14,4 C 37 % 1018,9 hPa 0,0 l/m 3 min 0 min 867 W/m 9,7 km/h (2 Bft) 100,00 %
18.04.2022 13:36 19,7 C 23,9 C 14,4 C 37 % 1018,9 hPa 0,0 l/m 1 min 0 min 865 W/m 6,4 km/h (2 Bft) 100,00 %
18.04.2022 13:38 19,7 C 24,4 C 15,0 C 37 % 1018,8 hPa 0,0 l/m 2 min 0 min 874 W/m 9,7 km/h (2 Bft) 100,00 %
18.04.2022 13:40 19,8 C 24,4 C 15,6 C 36 % 1018,8 hPa 0,0 l/m 2 min 0 min 875 W/m 12,9 km/h (3 Bft) 100,00 %
18.04.2022 13:42 19,8 C 23,9 C 16,1 C 36 % 1018,8 hPa 0,0 l/m 2 min 0 min 872 W/m 16,1 km/h (3 Bft) 100,00 %
18.04.2022 13:44 19,8 C 23,9 C 16,1 C 36 % 1018,8 hPa 0,0 l/m 2 min 0 min 875 W/m 12,9 km/h (3 Bft) 100,00 %
18.04.2022 13:46 19,8 C 23,9 C 16,7 C 36 % 1018,8 hPa 0,0 l/m 2 min 0 min 861 W/m 9,7 km/h (2 Bft) 100,00 %
18.04.2022 13:48 19,9 C 24,4 C 16,7 C 36 % 1018,8 hPa 0,0 l/m 2 min 0 min 849 W/m 16,1 km/h (3 Bft) 100,00 %
18.04.2022 13:50 19,9 C 24,4 C 16,1 C 35 % 1018,7 hPa 0,0 l/m 2 min 0 min 843 W/m 6,4 km/h (2 Bft) 100,00 %
18.04.2022 13:52 19,9 C 25,0 C 15,6 C 36 % 1018,7 hPa 0,0 l/m 2 min 0 min 818 W/m 12,9 km/h (3 Bft) 97,87 %
18.04.2022 13:54 19,9 C 23,9 C 15,6 C 36 % 1018,8 hPa 0,0 l/m 2 min 0 min 814 W/m 12,9 km/h (3 Bft) 100,00 %
18.04.2022 13:56 19,9 C 24,4 C 15,0 C 36 % 1018,7 hPa 0,0 l/m 2 min 0 min 793 W/m 6,4 km/h (2 Bft) 97,87 %
18.04.2022 13:58 19,9 C 25,0 C 15,0 C 37 % 1018,7 hPa 0,0 l/m 2 min 0 min 794 W/m 6,4 km/h (2 Bft) 100,00 %
18.04.2022 14:00 19,9 C 25,0 C 15,0 C 37 % 1018,7 hPa 0,0 l/m 2 min 0 min 804 W/m 16,1 km/h (3 Bft) 100,00 %
18.04.2022 14:02 19,9 C 23,3 C 14,4 C 36 % 1018,6 hPa 0,0 l/m 2 min 0 min 776 W/m 16,1 km/h (3 Bft) 97,87 %
18.04.2022 14:04 19,9 C 23,9 C 14,4 C 37 % 1018,6 hPa 0,0 l/m 2 min 0 min 741 W/m 9,7 km/h (2 Bft) 97,87 %
18.04.2022 14:06 19,9 C 23,9 C 14,4 C 36 % 1018,6 hPa 0,0 l/m 2 min 0 min 664 W/m 6,4 km/h (2 Bft) 97,87 %
18.04.2022 14:08 19,9 C 24,4 C 14,4 C 36 % 1018,6 hPa 0,0 l/m 2 min 0 min 783 W/m 12,9 km/h (3 Bft) 97,87 %
18.04.2022 14:10 20,1 C 25,0 C 15,0 C 36 % 1018,6 hPa 0,0 l/m 2 min 0 min 855 W/m 9,7 km/h (2 Bft) 93,62 %
18.04.2022 14:12 20,1 C 24,4 C 15,0 C 36 % 1018,5 hPa 0,0 l/m 2 min 0 min 842 W/m 19,3 km/h (3 Bft) 97,83 %
18.04.2022 14:14 20,1 C 23,9 C 14,4 C 35 % 1018,5 hPa 0,0 l/m 2 min 0 min 860 W/m 16,1 km/h (3 Bft) 97,87 %
18.04.2022 14:16 20,1 C 23,3 C 14,4 C 35 % 1018,5 hPa 0,0 l/m 2 min 0 min 858 W/m 12,9 km/h (3 Bft) 97,87 %
18.04.2022 14:18 20,1 C 24,4 C 14,4 C 35 % 1018,4 hPa 0,0 l/m 2 min 0 min 844 W/m 9,7 km/h (2 Bft) 97,87 %
18.04.2022 14:20 20,1 C 24,4 C 14,4 C 36 % 1018,4 hPa 0,0 l/m 2 min 0 min 843 W/m 12,9 km/h (3 Bft) 100,00 %
18.04.2022 14:22 20,1 C 24,4 C 15,0 C 36 % 1018,4 hPa 0,0 l/m 2 min 0 min 847 W/m 16,1 km/h (3 Bft) 97,87 %
18.04.2022 14:24 20,2 C 25,0 C 15,0 C 36 % 1018,4 hPa 0,0 l/m 2 min 0 min 851 W/m 12,9 km/h (3 Bft) 97,83 %
18.04.2022 14:26 20,2 C 25,0 C 15,0 C 36 % 1018,4 hPa 0,0 l/m 2 min 0 min 859 W/m 6,4 km/h (2 Bft) 95,74 %
18.04.2022 14:28 20,3 C 25,0 C 15,0 C 36 % 1018,4 hPa 0,0 l/m 2 min 0 min 848 W/m 12,9 km/h (3 Bft) 93,62 %
18.04.2022 14:30 20,4 C 25,0 C 15,6 C 37 % 1018,4 hPa 0,0 l/m 2 min 0 min 842 W/m 16,1 km/h (3 Bft) 91,49 %
18.04.2022 14:32 20,4 C 25,0 C 15,6 C 38 % 1018,3 hPa 0,0 l/m 2 min 0 min 850 W/m 12,9 km/h (3 Bft) 95,74 %
18.04.2022 14:34 20,4 C 25,6 C 15,6 C 38 % 1018,2 hPa 0,0 l/m 2 min 0 min 848 W/m 12,9 km/h (3 Bft) 91,49 %
18.04.2022 14:36 20,5 C 25,0 C 15,6 C 36 % 1018,2 hPa 0,0 l/m 2 min 0 min 857 W/m 16,1 km/h (3 Bft) 93,48 %
18.04.2022 14:38 20,4 C 25,0 C 15,0 C 35 % 1018,2 hPa 0,0 l/m 2 min 0 min 841 W/m 12,9 km/h (3 Bft) 95,74 %
18.04.2022 14:40 20,4 C 24,4 C 15,0 C 35 % 1018,2 hPa 0,0 l/m 2 min 0 min 743 W/m 9,7 km/h (2 Bft) 95,74 %
18.04.2022 14:42 20,4 C 25,0 C 15,0 C 36 % 1018,2 hPa 0,0 l/m 2 min 0 min 828 W/m 12,9 km/h (3 Bft) 97,87 %
18.04.2022 14:44 20,4 C 24,4 C 15,0 C 36 % 1018,2 hPa 0,0 l/m 2 min 0 min 799 W/m 16,1 km/h (3 Bft) 97,87 %
18.04.2022 14:46 20,4 C 25,0 C 15,0 C 36 % 1018,1 hPa 0,0 l/m 2 min 0 min 802 W/m 6,4 km/h (2 Bft) 93,62 %
18.04.2022 14:48 20,5 C 25,6 C 15,0 C 36 % 1018,0 hPa 0,0 l/m 2 min 0 min 823 W/m 6,4 km/h (2 Bft) 100,00 %
18.04.2022 14:50 20,6 C 26,7 C 15,6 C 37 % 1018,0 hPa 0,0 l/m 2 min 0 min 808 W/m 9,7 km/h (2 Bft) 97,87 %
18.04.2022 14:52 20,6 C 27,2 C 15,6 C 37 % 1017,9 hPa 0,0 l/m 2 min 0 min 826 W/m 6,4 km/h (2 Bft) 95,74 %
18.04.2022 14:54 20,7 C 27,2 C 15,6 C 36 % 1017,9 hPa 0,0 l/m 2 min 0 min 822 W/m 6,4 km/h (2 Bft) 95,74 %
18.04.2022 14:56 20,8 C 27,2 C 15,6 C 37 % 1017,8 hPa 0,0 l/m 2 min 0 min 808 W/m 6,4 km/h (2 Bft) 95,74 %
18.04.2022 14:58 20,9 C 27,2 C 15,6 C 37 % 1017,8 hPa 0,0 l/m 2 min 0 min 808 W/m 9,7 km/h (2 Bft) 95,74 %
18.04.2022 15:00 21,1 C 26,7 C 15,0 C 37 % 1017,8 hPa 0,0 l/m 2 min 0 min 818 W/m 12,9 km/h (3 Bft) 95,65 %
18.04.2022 15:02 21,1 C 25,6 C 15,6 C 36 % 1017,8 hPa 0,0 l/m 2 min 0 min 804 W/m 16,1 km/h (3 Bft) 95,74 %
18.04.2022 15:04 21,1 C 25,6 C 15,6 C 36 % 1017,8 hPa 0,0 l/m 2 min 0 min 798 W/m 19,3 km/h (3 Bft) 95,74 %
18.04.2022 15:06 21,1 C 25,0 C 15,6 C 36 % 1017,8 hPa 0,0 l/m 2 min 0 min 787 W/m 16,1 km/h (3 Bft) 95,74 %
18.04.2022 15:08 21,1 C 25,0 C 15,6 C 36 % 1017,8 hPa 0,0 l/m 2 min 0 min 781 W/m 16,1 km/h (3 Bft) 95,74 %
18.04.2022 15:10 21,1 C 25,6 C 15,0 C 36 % 1017,7 hPa 0,0 l/m 2 min 0 min 753 W/m 12,9 km/h (3 Bft) 97,87 %
18.04.2022 15:12 21,1 C 25,0 C 15,6 C 36 % 1017,7 hPa 0,0 l/m 2 min 0 min 758 W/m 12,9 km/h (3 Bft) 97,83 %
18.04.2022 15:14 21,1 C 25,0 C 15,6 C 36 % 1017,7 hPa 0,0 l/m 2 min 0 min 761 W/m 12,9 km/h (3 Bft) 95,74 %
18.04.2022 15:16 21,1 C 25,0 C 15,0 C 36 % 1017,7 hPa 0,0 l/m 2 min 0 min 754 W/m 9,7 km/h (2 Bft) 97,87 %
18.04.2022 15:18 21,0 C 25,6 C 15,0 C 36 % 1017,6 hPa 0,0 l/m 2 min 0 min 755 W/m 9,7 km/h (2 Bft) 97,87 %
18.04.2022 15:20 20,9 C 25,6 C 15,0 C 37 % 1017,6 hPa 0,0 l/m 2 min 0 min 726 W/m 12,9 km/h (3 Bft) 97,87 %
18.04.2022 15:22 20,9 C 26,1 C 15,6 C 37 % 1017,6 hPa 0,0 l/m 2 min 0 min 706 W/m 9,7 km/h (2 Bft) 97,87 %
18.04.2022 15:24 20,8 C 26,1 C 15,0 C 37 % 1017,6 hPa 0,0 l/m 2 min 0 min 705 W/m 12,9 km/h (3 Bft) 93,48 %
18.04.2022 15:26 20,7 C 26,7 C 15,0 C 36 % 1017,5 hPa 0,0 l/m 2 min 0 min 739 W/m 6,4 km/h (2 Bft) 97,87 %
18.04.2022 15:28 20,7 C 26,7 C 15,0 C 36 % 1017,5 hPa 0,0 l/m 2 min 0 min 747 W/m 6,4 km/h (2 Bft) 97,87 %
18.04.2022 15:30 20,7 C 26,7 C 15,0 C 37 % 1017,5 hPa 0,0 l/m 2 min 0 min 727 W/m 9,7 km/h (2 Bft) 97,87 %
18.04.2022 15:32 20,7 C 26,1 C 15,0 C 36 % 1017,4 hPa 0,0 l/m 2 min 0 min 749 W/m 6,4 km/h (2 Bft) 97,87 %
18.04.2022 15:34 20,7 C 26,1 C 15,0 C 36 % 1017,4 hPa 0,0 l/m 2 min 0 min 735 W/m 12,9 km/h (3 Bft) 97,87 %
18.04.2022 15:36 20,8 C 25,6 C 15,6 C 36 % 1017,4 hPa 0,0 l/m 2 min 0 min 717 W/m 12,9 km/h (3 Bft) 97,83 %
18.04.2022 15:38 20,8 C 25,6 C 15,0 C 36 % 1017,3 hPa 0,0 l/m 2 min 0 min 708 W/m 6,4 km/h (2 Bft) 97,87 %
18.04.2022 15:40 20,9 C 25,6 C 15,0 C 36 % 1017,3 hPa 0,0 l/m 2 min 0 min 702 W/m 16,1 km/h (3 Bft) 97,87 %
18.04.2022 15:42 20,9 C 25,6 C 15,0 C 36 % 1017,2 hPa 0,0 l/m 2 min 0 min 716 W/m 12,9 km/h (3 Bft) 95,74 %
18.04.2022 15:44 20,9 C 25,0 C 15,6 C 36 % 1017,2 hPa 0,0 l/m 2 min 0 min 681 W/m 12,9 km/h (3 Bft) 97,87 %
18.04.2022 15:46 21,1 C 25,6 C 15,6 C 37 % 1017,2 hPa 0,0 l/m 2 min 0 min 725 W/m 6,4 km/h (2 Bft) 97,87 %
18.04.2022 15:48 21,1 C 25,6 C 15,6 C 36 % 1017,2 hPa 0,0 l/m 2 min 0 min 728 W/m 6,4 km/h (2 Bft) 97,83 %
18.04.2022 15:50 21,1 C 26,1 C 15,6 C 36 % 1017,1 hPa 0,0 l/m 2 min 0 min 726 W/m 9,7 km/h (2 Bft) 100,00 %
18.04.2022 15:52 21,2 C 27,2 C 15,6 C 36 % 1017,2 hPa 0,0 l/m 2 min 0 min 714 W/m 6,4 km/h (2 Bft) 100,00 %
18.04.2022 15:54 21,3 C 27,2 C 15,6 C 37 % 1017,1 hPa 0,0 l/m 2 min 0 min 698 W/m 12,9 km/h (3 Bft) 97,87 %
18.04.2022 15:56 21,3 C 27,2 C 15,6 C 36 % 1017,1 hPa 0,0 l/m 2 min 0 min 717 W/m 6,4 km/h (2 Bft) 100,00 %
18.04.2022 15:58 21,3 C 26,1 C 15,0 C 36 % 1017,2 hPa 0,0 l/m 2 min 0 min 691 W/m 6,4 km/h (2 Bft) 100,00 %
18.04.2022 16:00 21,3 C 26,7 C 15,0 C 36 % 1017,1 hPa 0,0 l/m 2 min 0 min 709 W/m 6,4 km/h (2 Bft) 100,00 %
18.04.2022 16:02 21,3 C 25,6 C 15,0 C 36 % 1017,1 hPa 0,0 l/m 2 min 0 min 669 W/m 6,4 km/h (2 Bft) 93,62 %
18.04.2022 16:04 21,3 C 26,7 C 15,0 C 36 % 1017,1 hPa 0,0 l/m 2 min 0 min 686 W/m 9,7 km/h (2 Bft) 97,87 %
18.04.2022 16:06 21,4 C 27,2 C 15,6 C 36 % 1017,1 hPa 0,0 l/m 2 min 0 min 684 W/m 6,4 km/h (2 Bft) 97,87 %
18.04.2022 16:08 21,4 C 28,3 C 15,6 C 37 % 1017,1 hPa 0,0 l/m 2 min 0 min 701 W/m 6,4 km/h (2 Bft) 97,87 %
18.04.2022 16:10 21,4 C 28,3 C 15,6 C 36 % 1017,1 hPa 0,0 l/m 2 min 0 min 711 W/m 16,1 km/h (3 Bft) 97,83 %
18.04.2022 16:12 21,5 C 28,9 C 15,6 C 36 % 1017,1 hPa 0,0 l/m 2 min 0 min 690 W/m 6,4 km/h (2 Bft) 97,87 %
18.04.2022 16:14 21,6 C 29,4 C 16,1 C 37 % 1017,1 hPa 0,0 l/m 2 min 0 min 602 W/m 6,4 km/h (2 Bft) 97,87 %
18.04.2022 16:16 21,7 C 28,3 C 16,1 C 37 % 1017,0 hPa 0,0 l/m 2 min 0 min 541 W/m 9,7 km/h (2 Bft) 97,87 %
18.04.2022 16:18 21,8 C 27,2 C 16,1 C 36 % 1017,0 hPa 0,0 l/m 2 min 0 min 493 W/m 9,7 km/h (2 Bft) 97,87 %
18.04.2022 16:20 21,7 C 26,1 C 15,6 C 36 % 1017,0 hPa 0,0 l/m 2 min 0 min 458 W/m 9,7 km/h (2 Bft) 97,87 %
18.04.2022 16:22 21,6 C 25,6 C 15,6 C 38 % 1017,0 hPa 0,0 l/m 2 min 0 min 466 W/m 9,7 km/h (2 Bft) 97,83 %
18.04.2022 16:24 21,5 C 26,1 C 16,1 C 36 % 1016,9 hPa 0,0 l/m 2 min 0 min 461 W/m 9,7 km/h (2 Bft) 97,87 %
18.04.2022 16:26 21,4 C 26,1 C 16,1 C 37 % 1016,9 hPa 0,0 l/m 2 min 0 min 469 W/m 16,1 km/h (3 Bft) 95,74 %
18.04.2022 16:28 21,3 C 26,7 C 16,1 C 37 % 1016,9 hPa 0,0 l/m 2 min 0 min 462 W/m 9,7 km/h (2 Bft) 97,87 %
18.04.2022 16:30 21,2 C 26,7 C 16,1 C 38 % 1016,9 hPa 0,0 l/m 2 min 0 min 484 W/m 9,7 km/h (2 Bft) 97,87 %
18.04.2022 16:32 21,1 C 27,2 C 16,1 C 37 % 1016,8 hPa 0,0 l/m 2 min 0 min 550 W/m 6,4 km/h (2 Bft) 97,87 %
18.04.2022 16:34 21,1 C 27,8 C 16,1 C 36 % 1016,8 hPa 0,0 l/m 2 min 0 min 550 W/m 9,7 km/h (2 Bft) 97,83 %
18.04.2022 16:36 21,0 C 27,8 C 16,1 C 36 % 1016,8 hPa 0,0 l/m 2 min 0 min 529 W/m 9,7 km/h (2 Bft) 97,87 %
18.04.2022 16:38 21,1 C 28,3 C 16,7 C 37 % 1016,8 hPa 0,0 l/m 2 min 0 min 495 W/m 9,7 km/h (2 Bft) 95,74 %
18.04.2022 16:40 21,1 C 28,3 C 16,7 C 37 % 1016,8 hPa 0,0 l/m 2 min 0 min 503 W/m 6,4 km/h (2 Bft) 97,87 %
18.04.2022 16:42 21,0 C 28,9 C 16,7 C 37 % 1016,8 hPa 0,0 l/m 2 min 0 min 517 W/m 6,4 km/h (2 Bft) 97,87 %
18.04.2022 16:44 21,1 C 29,4 C 16,7 C 37 % 1016,8 hPa 0,0 l/m 2 min 0 min 533 W/m 6,4 km/h (2 Bft) 100,00 %
18.04.2022 16:46 21,2 C 30,0 C 16,7 C 37 % 1016,8 hPa 0,0 l/m 2 min 0 min 520 W/m 6,4 km/h (2 Bft) 100,00 %
18.04.2022 16:48 21,3 C 29,4 C 16,1 C 37 % 1016,7 hPa 0,0 l/m 2 min 0 min 527 W/m 3,2 km/h (1 Bft) 100,00 %
18.04.2022 16:50 21,4 C 29,4 C 16,7 C 36 % 1016,8 hPa 0,0 l/m 2 min 0 min 539 W/m 6,4 km/h (2 Bft) 100,00 %
18.04.2022 16:52 21,6 C 28,9 C 16,7 C 37 % 1016,7 hPa 0,0 l/m 2 min 0 min 521 W/m 9,7 km/h (2 Bft) 100,00 %
18.04.2022 16:54 21,5 C 29,4 C 16,7 C 38 % 1016,7 hPa 0,0 l/m 2 min 0 min 547 W/m 6,4 km/h (2 Bft) 100,00 %
18.04.2022 16:56 21,5 C 29,4 C 17,2 C 39 % 1016,7 hPa 0,0 l/m 2 min 0 min 548 W/m 9,7 km/h (2 Bft) 97,87 %
18.04.2022 16:58 21,4 C 29,4 C 17,2 C 38 % 1016,6 hPa 0,0 l/m 2 min 0 min 555 W/m 9,7 km/h (2 Bft) 97,83 %
18.04.2022 17:00 21,5 C 29,4 C 17,2 C 37 % 1016,6 hPa 0,0 l/m 2 min 0 min 556 W/m 9,7 km/h (2 Bft) 97,87 %
18.04.2022 17:02 21,4 C 28,9 C 16,7 C 36 % 1016,6 hPa 0,0 l/m 2 min 0 min 549 W/m 12,9 km/h (3 Bft) 97,87 %
18.04.2022 17:04 21,3 C 28,3 C 16,7 C 36 % 1016,5 hPa 0,0 l/m 2 min 0 min 547 W/m 9,7 km/h (2 Bft) 97,87 %
18.04.2022 17:06 21,2 C 27,8 C 16,7 C 37 % 1016,5 hPa 0,0 l/m 2 min 0 min 543 W/m 12,9 km/h (3 Bft) 97,87 %
18.04.2022 17:08 21,2 C 28,3 C 17,2 C 37 % 1016,5 hPa 0,0 l/m 2 min 0 min 538 W/m 9,7 km/h (2 Bft) 97,87 %
18.04.2022 17:10 21,2 C 28,9 C 17,2 C 38 % 1016,4 hPa 0,0 l/m 2 min 0 min 543 W/m 9,7 km/h (2 Bft) 95,65 %
18.04.2022 17:12 21,3 C 28,3 C 17,2 C 38 % 1016,4 hPa 0,0 l/m 2 min 0 min 546 W/m 12,9 km/h (3 Bft) 97,87 %
18.04.2022 17:14 21,4 C 28,3 C 17,8 C 38 % 1016,4 hPa 0,0 l/m 2 min 0 min 512 W/m 12,9 km/h (3 Bft) 97,87 %
18.04.2022 17:16 21,4 C 28,9 C 17,2 C 39 % 1016,4 hPa 0,0 l/m 2 min 0 min 469 W/m 6,4 km/h (2 Bft) 97,87 %
18.04.2022 17:18 21,6 C 28,3 C 17,2 C 36 % 1016,3 hPa 0,0 l/m 2 min 0 min 478 W/m 6,4 km/h (2 Bft) 97,87 %
18.04.2022 17:20 21,6 C 28,3 C 17,2 C 37 % 1016,3 hPa 0,0 l/m 2 min 0 min 467 W/m 6,4 km/h (2 Bft) 97,87 %
18.04.2022 17:22 21,6 C 28,3 C 17,2 C 37 % 1016,3 hPa 0,0 l/m 2 min 0 min 461 W/m 6,4 km/h (2 Bft) 97,83 %
18.04.2022 17:24 21,6 C 27,8 C 17,2 C 38 % 1016,3 hPa 0,0 l/m 2 min 0 min 423 W/m 9,7 km/h (2 Bft) 97,87 %
18.04.2022 17:26 21,5 C 27,2 C 16,7 C 36 % 1016,3 hPa 0,0 l/m 2 min 0 min 405 W/m 6,4 km/h (2 Bft) 97,87 %
18.04.2022 17:28 21,4 C 27,2 C 16,7 C 37 % 1016,3 hPa 0,0 l/m 2 min 0 min 400 W/m 12,9 km/h (3 Bft) 95,74 %
18.04.2022 17:30 21,4 C 26,7 C 16,7 C 37 % 1016,3 hPa 0,0 l/m 2 min 0 min 397 W/m 6,4 km/h (2 Bft) 97,87 %
18.04.2022 17:32 21,4 C 27,2 C 16,7 C 38 % 1016,3 hPa 0,0 l/m 2 min 0 min 404 W/m 6,4 km/h (2 Bft) 97,87 %
18.04.2022 17:34 21,4 C 27,8 C 17,2 C 38 % 1016,2 hPa 0,0 l/m 2 min 0 min 426 W/m 6,4 km/h (2 Bft) 97,83 %
18.04.2022 17:36 21,4 C 27,8 C 16,7 C 38 % 1016,2 hPa 0,0 l/m 2 min 0 min 428 W/m 6,4 km/h (2 Bft) 95,74 %
18.04.2022 17:38 21,4 C 28,3 C 17,2 C 40 % 1016,2 hPa 0,0 l/m 2 min 0 min 431 W/m 12,9 km/h (3 Bft) 97,87 %
18.04.2022 17:40 21,4 C 27,8 C 17,2 C 37 % 1016,2 hPa 0,0 l/m 2 min 0 min 398 W/m 9,7 km/h (2 Bft) 97,87 %
18.04.2022 17:42 21,3 C 27,2 C 16,7 C 36 % 1016,2 hPa 0,0 l/m 2 min 0 min 391 W/m 6,4 km/h (2 Bft) 97,87 %
18.04.2022 17:44 21,4 C 27,2 C 16,7 C 37 % 1016,2 hPa 0,0 l/m 2 min 0 min 380 W/m 6,4 km/h (2 Bft) 100,00 %
18.04.2022 17:46 21,4 C 27,2 C 16,7 C 37 % 1016,2 hPa 0,0 l/m 2 min 0 min 369 W/m 9,7 km/h (2 Bft) 97,83 %
18.04.2022 17:48 21,4 C 27,2 C 16,7 C 38 % 1016,2 hPa 0,0 l/m 2 min 0 min 389 W/m 9,7 km/h (2 Bft) 100,00 %
18.04.2022 17:50 21,6 C 27,8 C 17,2 C 38 % 1016,1 hPa 0,0 l/m 2 min 0 min 411 W/m 6,4 km/h (2 Bft) 97,87 %
18.04.2022 17:52 21,6 C 28,3 C 17,2 C 38 % 1016,1 hPa 0,0 l/m 2 min 0 min 416 W/m 6,4 km/h (2 Bft) 100,00 %
18.04.2022 17:54 21,6 C 28,3 C 16,7 C 37 % 1016,1 hPa 0,0 l/m 2 min 0 min 421 W/m 6,4 km/h (2 Bft) 100,00 %
18.04.2022 17:56 21,8 C 28,3 C 17,2 C 38 % 1016,2 hPa 0,0 l/m 2 min 0 min 376 W/m 9,7 km/h (2 Bft) 97,87 %
18.04.2022 17:58 21,8 C 27,8 C 16,7 C 35 % 1016,1 hPa 0,0 l/m 2 min 0 min 357 W/m 6,4 km/h (2 Bft) 100,00 %
18.04.2022 18:00 21,8 C 27,2 C 16,7 C 36 % 1016,1 hPa 0,0 l/m 2 min 0 min 407 W/m 3,2 km/h (1 Bft) 97,87 %
18.04.2022 18:02 21,7 C 26,7 C 16,7 C 36 % 1016,1 hPa 0,0 l/m 2 min 0 min 340 W/m 3,2 km/h (1 Bft) 100,00 %
18.04.2022 18:04 21,8 C 27,2 C 16,7 C 37 % 1016,1 hPa 0,0 l/m 2 min 0 min 334 W/m 3,2 km/h (1 Bft) 100,00 %
18.04.2022 18:08 22,0 C 27,2 C 16,1 C 36 % 1016,1 hPa 0,0 l/m 4 min 0 min 363 W/m 3,2 km/h (1 Bft) 98,94 %
18.04.2022 18:10 22,1 C 27,8 C 16,1 C 36 % 1016,0 hPa 0,0 l/m 2 min 0 min 374 W/m 3,2 km/h (1 Bft) 95,65 %
18.04.2022 18:12 22,1 C 27,8 C 16,1 C 35 % 1016,0 hPa 0,0 l/m 2 min 0 min 366 W/m 3,2 km/h (1 Bft) 97,87 %
18.04.2022 18:14 22,2 C 28,3 C 16,1 C 36 % 1016,0 hPa 0,0 l/m 2 min 0 min 356 W/m 3,2 km/h (1 Bft) 95,74 %
18.04.2022 18:16 22,2 C 28,3 C 16,1 C 37 % 1016,0 hPa 0,0 l/m 2 min 0 min 348 W/m 3,2 km/h (1 Bft) 95,74 %
18.04.2022 18:18 22,3 C 28,9 C 16,7 C 37 % 1016,0 hPa 0,0 l/m 2 min 0 min 334 W/m 3,2 km/h (1 Bft) 97,87 %
18.04.2022 18:20 22,3 C 28,3 C 16,7 C 37 % 1016,0 hPa 0,0 l/m 2 min 0 min 323 W/m 9,7 km/h (2 Bft) 95,65 %
18.04.2022 18:22 22,4 C 28,3 C 16,7 C 37 % 1015,9 hPa 0,0 l/m 2 min 0 min 323 W/m 6,4 km/h (2 Bft) 95,74 %
18.04.2022 18:24 22,6 C 28,3 C 16,7 C 38 % 1015,9 hPa 0,0 l/m 2 min 0 min 320 W/m 3,2 km/h (1 Bft) 93,62 %
18.04.2022 18:26 22,4 C 28,3 C 16,7 C 35 % 1015,9 hPa 0,0 l/m 2 min 0 min 314 W/m 9,7 km/h (2 Bft) 95,74 %
18.04.2022 18:28 22,2 C 28,3 C 16,7 C 37 % 1015,8 hPa 0,0 l/m 2 min 0 min 305 W/m 9,7 km/h (2 Bft) 95,74 %
18.04.2022 18:30 22,2 C 27,2 C 16,7 C 36 % 1015,8 hPa 0,0 l/m 2 min 0 min 298 W/m 12,9 km/h (3 Bft) 93,62 %
18.04.2022 18:32 22,1 C 27,2 C 16,7 C 37 % 1015,8 hPa 0,0 l/m 2 min 0 min 290 W/m 19,3 km/h (3 Bft) 95,65 %
18.04.2022 18:34 22,0 C 26,7 C 16,7 C 38 % 1015,8 hPa 0,0 l/m 2 min 0 min 282 W/m 9,7 km/h (2 Bft) 95,74 %
18.04.2022 18:36 21,9 C 25,0 C 16,1 C 38 % 1015,8 hPa 0,0 l/m 2 min 0 min 275 W/m 6,4 km/h (2 Bft) 95,74 %
18.04.2022 18:38 21,7 C 22,8 C 16,1 C 39 % 1015,8 hPa 0,0 l/m 2 min 0 min 268 W/m 12,9 km/h (3 Bft) 94,00 %
18.04.2022 18:40 21,5 C 21,7 C 15,6 C 39 % 1015,8 hPa 0,0 l/m 2 min 0 min 260 W/m 6,4 km/h (2 Bft) 95,74 %
18.04.2022 18:42 21,3 C 20,6 C 15,6 C 40 % 1015,8 hPa 0,0 l/m 2 min 0 min 252 W/m 6,4 km/h (2 Bft) 95,74 %
18.04.2022 18:44 21,2 C 20,0 C 15,6 C 39 % 1015,8 hPa 0,0 l/m 2 min 0 min 243 W/m 6,4 km/h (2 Bft) 93,48 %
18.04.2022 18:46 21,1 C 20,0 C 15,0 C 39 % 1015,8 hPa 0,0 l/m 2 min 0 min 180 W/m 6,4 km/h (2 Bft) 95,74 %
18.04.2022 18:48 20,9 C 19,4 C 15,0 C 40 % 1015,7 hPa 0,0 l/m 0 min 0 min 78 W/m 9,7 km/h (2 Bft) 91,49 %
18.04.2022 18:50 20,7 C 19,4 C 15,0 C 40 % 1015,8 hPa 0,0 l/m 0 min 0 min 52 W/m 6,4 km/h (2 Bft) 95,74 %
18.04.2022 18:52 20,7 C 19,4 C 15,0 C 40 % 1015,7 hPa 0,0 l/m 0 min 0 min 50 W/m 6,4 km/h (2 Bft) 95,74 %
18.04.2022 18:54 20,5 C 19,4 C 15,0 C 40 % 1015,7 hPa 0,0 l/m 0 min 0 min 49 W/m 6,4 km/h (2 Bft) 93,62 %
18.04.2022 18:56 20,4 C 18,9 C 14,4 C 40 % 1015,7 hPa 0,0 l/m 0 min 0 min 49 W/m 6,4 km/h (2 Bft) 97,83 %
18.04.2022 18:58 20,3 C 18,9 C 14,4 C 41 % 1015,7 hPa 0,0 l/m 0 min 0 min 47 W/m 6,4 km/h (2 Bft) 97,87 %
18.04.2022 19:00 20,2 C 18,9 C 14,4 C 40 % 1015,7 hPa 0,0 l/m 0 min 0 min 47 W/m 3,2 km/h (1 Bft) 97,87 %
18.04.2022 19:02 20,1 C 18,9 C 14,4 C 39 % 1015,7 hPa 0,0 l/m 0 min 0 min 47 W/m 9,7 km/h (2 Bft) 100,00 %
18.04.2022 19:04 20,0 C 18,9 C 14,4 C 40 % 1015,6 hPa 0,0 l/m 0 min 0 min 46 W/m 3,2 km/h (1 Bft) 100,00 %
18.04.2022 19:06 19,9 C 18,9 C 14,4 C 41 % 1015,6 hPa 0,0 l/m 0 min 0 min 46 W/m 3,2 km/h (1 Bft) 97,87 %
18.04.2022 19:08 19,8 C 18,9 C 14,4 C 41 % 1015,6 hPa 0,0 l/m 0 min 0 min 46 W/m 3,2 km/h (1 Bft) 100,00 %
18.04.2022 19:10 19,8 C 18,9 C 13,9 C 41 % 1015,6 hPa 0,0 l/m 0 min 0 min 44 W/m 0,0 km/h (0 Bft) 100,00 %
18.04.2022 19:12 19,8 C 18,9 C 13,9 C 42 % 1015,6 hPa 0,0 l/m 0 min 0 min 44 W/m 3,2 km/h (1 Bft) 97,87 %
18.04.2022 19:14 19,7 C 18,3 C 13,9 C 42 % 1015,6 hPa 0,0 l/m 0 min 0 min 42 W/m 3,2 km/h (1 Bft) 100,00 %
18.04.2022 19:16 19,7 C 18,3 C 13,9 C 43 % 1015,6 hPa 0,0 l/m 0 min 0 min 42 W/m 3,2 km/h (1 Bft) 100,00 %
18.04.2022 19:18 19,7 C 18,3 C 13,3 C 42 % 1015,6 hPa 0,0 l/m 0 min 0 min 42 W/m 3,2 km/h (1 Bft) 100,00 %
18.04.2022 19:20 19,6 C 18,3 C 13,3 C 43 % 1015,6 hPa 0,0 l/m 0 min 0 min 40 W/m 3,2 km/h (1 Bft) 100,00 %
18.04.2022 19:22 19,6 C 18,3 C 13,3 C 42 % 1015,6 hPa 0,0 l/m 0 min 0 min 40 W/m 6,4 km/h (2 Bft) 100,00 %
18.04.2022 19:24 19,5 C 18,3 C 13,3 C 41 % 1015,6 hPa 0,0 l/m 0 min 0 min 40 W/m 6,4 km/h (2 Bft) 97,87 %
18.04.2022 19:26 19,4 C 18,3 C 13,3 C 41 % 1015,5 hPa 0,0 l/m 0 min 0 min 39 W/m 3,2 km/h (1 Bft) 97,87 %
18.04.2022 19:28 19,4 C 18,3 C 13,3 C 42 % 1015,5 hPa 0,0 l/m 0 min 0 min 38 W/m 0,0 km/h (0 Bft) 100,00 %
18.04.2022 19:30 19,4 C 17,8 C 13,3 C 44 % 1015,5 hPa 0,0 l/m 0 min 0 min 37 W/m 3,2 km/h (1 Bft) 97,87 %
18.04.2022 19:32 19,3 C 17,8 C 12,8 C 46 % 1015,5 hPa 0,0 l/m 0 min 0 min 36 W/m 6,4 km/h (2 Bft) 97,83 %
18.04.2022 19:34 19,2 C 17,8 C 12,8 C 45 % 1015,6 hPa 0,0 l/m 0 min 0 min 35 W/m 6,4 km/h (2 Bft) 95,74 %
18.04.2022 19:36 19,1 C 17,2 C 12,8 C 42 % 1015,5 hPa 0,0 l/m 0 min 0 min 34 W/m 12,9 km/h (3 Bft) 97,87 %
18.04.2022 19:38 18,9 C 17,2 C 13,3 C 42 % 1015,6 hPa 0,0 l/m 0 min 0 min 33 W/m 9,7 km/h (2 Bft) 97,87 %
18.04.2022 19:40 18,9 C 17,2 C 13,3 C 42 % 1015,5 hPa 0,0 l/m 0 min 0 min 33 W/m 3,2 km/h (1 Bft) 97,87 %
18.04.2022 19:42 18,8 C 17,2 C 12,8 C 43 % 1015,5 hPa 0,0 l/m 0 min 0 min 32 W/m 3,2 km/h (1 Bft) 97,87 %
18.04.2022 19:44 18,7 C 17,2 C 12,8 C 44 % 1015,5 hPa 0,0 l/m 0 min 0 min 32 W/m 6,4 km/h (2 Bft) 97,83 %
18.04.2022 19:46 18,6 C 17,2 C 12,8 C 43 % 1015,5 hPa 0,0 l/m 0 min 0 min 32 W/m 6,4 km/h (2 Bft) 96,23 %
18.04.2022 19:48 18,4 C 16,7 C 12,8 C 43 % 1015,5 hPa 0,0 l/m 0 min 0 min 30 W/m 6,4 km/h (2 Bft) 97,87 %
18.04.2022 19:50 18,3 C 16,7 C 12,8 C 44 % 1015,5 hPa 0,0 l/m 0 min 0 min 30 W/m 6,4 km/h (2 Bft) 97,87 %
18.04.2022 19:52 18,2 C 16,7 C 12,8 C 45 % 1015,5 hPa 0,0 l/m 0 min 0 min 28 W/m 3,2 km/h (1 Bft) 95,65 %
18.04.2022 19:54 18,0 C 16,7 C 12,8 C 44 % 1015,5 hPa 0,0 l/m 0 min 0 min 26 W/m 6,4 km/h (2 Bft) 97,87 %
18.04.2022 19:56 17,9 C 16,7 C 12,8 C 44 % 1015,5 hPa 0,0 l/m 0 min 0 min 25 W/m 3,2 km/h (1 Bft) 97,87 %
18.04.2022 19:58 17,8 C 16,1 C 12,8 C 45 % 1015,6 hPa 0,0 l/m 0 min 0 min 24 W/m 3,2 km/h (1 Bft) 97,87 %
18.04.2022 20:00 17,7 C 16,1 C 12,2 C 47 % 1015,6 hPa 0,0 l/m 0 min 0 min 21 W/m 6,4 km/h (2 Bft) 95,74 %
18.04.2022 20:02 17,6 C 16,1 C 12,2 C 47 % 1015,6 hPa 0,0 l/m 0 min 0 min 20 W/m 3,2 km/h (1 Bft) 97,87 %
18.04.2022 20:04 17,6 C 16,1 C 12,2 C 46 % 1015,6 hPa 0,0 l/m 0 min 0 min 19 W/m 6,4 km/h (2 Bft) 97,87 %
18.04.2022 20:06 17,5 C 15,6 C 12,2 C 47 % 1015,7 hPa 0,0 l/m 0 min 0 min 18 W/m 6,4 km/h (2 Bft) 95,65 %
18.04.2022 20:08 17,4 C 15,6 C 11,7 C 46 % 1015,7 hPa 0,0 l/m 0 min 0 min 17 W/m 6,4 km/h (2 Bft) 97,87 %
18.04.2022 20:10 17,4 C 15,6 C 11,7 C 46 % 1015,7 hPa 0,0 l/m 0 min 0 min 16 W/m 6,4 km/h (2 Bft) 97,87 %
18.04.2022 20:12 17,3 C 15,6 C 11,7 C 47 % 1015,7 hPa 0,0 l/m 0 min 0 min 14 W/m 6,4 km/h (2 Bft) 97,87 %
18.04.2022 20:14 17,2 C 15,6 C 11,7 C 47 % 1015,7 hPa 0,0 l/m 0 min 0 min 14 W/m 3,2 km/h (1 Bft) 97,87 %
18.04.2022 20:16 17,2 C 15,0 C 11,7 C 47 % 1015,8 hPa 0,0 l/m 0 min 0 min 12 W/m 3,2 km/h (1 Bft) 97,83 %
18.04.2022 20:18 17,1 C 15,0 C 11,1 C 48 % 1015,8 hPa 0,0 l/m 0 min 0 min 12 W/m 6,4 km/h (2 Bft) 95,74 %
18.04.2022 20:20 17,0 C 15,0 C 11,1 C 49 % 1015,7 hPa 0,0 l/m 0 min 0 min 11 W/m 3,2 km/h (1 Bft) 100,00 %
18.04.2022 20:22 16,9 C 15,0 C 11,1 C 49 % 1015,7 hPa 0,0 l/m 0 min 0 min 10 W/m 3,2 km/h (1 Bft) 97,87 %
18.04.2022 20:24 16,8 C 14,4 C 11,1 C 49 % 1015,7 hPa 0,0 l/m 0 min 0 min 9 W/m 3,2 km/h (1 Bft) 97,87 %
18.04.2022 20:26 16,7 C 14,4 C 11,1 C 49 % 1015,7 hPa 0,0 l/m 0 min 0 min 9 W/m 3,2 km/h (1 Bft) 93,62 %
18.04.2022 20:28 16,6 C 14,4 C 11,1 C 49 % 1015,7 hPa 0,0 l/m 0 min 0 min 7 W/m 3,2 km/h (1 Bft) 95,65 %
18.04.2022 20:30 16,6 C 14,4 C 11,1 C 49 % 1015,7 hPa 0,0 l/m 0 min 0 min 6 W/m 3,2 km/h (1 Bft) 97,87 %
18.04.2022 20:32 16,5 C 14,4 C 10,6 C 51 % 1015,7 hPa 0,0 l/m 0 min 0 min 5 W/m 3,2 km/h (1 Bft) 97,87 %
18.04.2022 20:34 16,4 C 14,4 C 10,6 C 49 % 1015,7 hPa 0,0 l/m 0 min 0 min 3 W/m 6,4 km/h (2 Bft) 97,87 %
18.04.2022 20:36 16,3 C 13,9 C 10,6 C 49 % 1015,8 hPa 0,0 l/m 0 min 0 min 0 W/m 3,2 km/h (1 Bft) 91,49 %
18.04.2022 20:38 16,2 C 13,9 C 10,6 C 50 % 1015,7 hPa 0,0 l/m 0 min 0 min 0 W/m 6,4 km/h (2 Bft) 93,62 %
18.04.2022 20:40 16,2 C 13,9 C 10,6 C 49 % 1015,7 hPa 0,0 l/m 0 min 0 min 0 W/m 6,4 km/h (2 Bft) 95,65 %
18.04.2022 20:42 16,1 C 13,9 C 10,6 C 50 % 1015,7 hPa 0,0 l/m 0 min 0 min 0 W/m 6,4 km/h (2 Bft) 95,74 %
18.04.2022 20:44 16,1 C 13,9 C 10,6 C 49 % 1015,8 hPa 0,0 l/m 0 min 0 min 0 W/m 6,4 km/h (2 Bft) 95,74 %
18.04.2022 20:46 16,0 C 13,9 C 10,6 C 49 % 1015,8 hPa 0,0 l/m 0 min 0 min 0 W/m 3,2 km/h (1 Bft) 95,74 %
18.04.2022 20:48 15,9 C 13,9 C 10,6 C 49 % 1015,8 hPa 0,0 l/m 0 min 0 min 0 W/m 3,2 km/h (1 Bft) 91,49 %
18.04.2022 20:50 15,9 C 13,9 C 10,6 C 49 % 1015,9 hPa 0,0 l/m 0 min 0 min 0 W/m 3,2 km/h (1 Bft) 93,62 %
18.04.2022 20:52 15,8 C 13,9 C 10,0 C 49 % 1015,8 hPa 0,0 l/m 0 min 0 min 0 W/m 3,2 km/h (1 Bft) 97,83 %
18.04.2022 20:54 15,8 C 13,9 C 10,0 C 49 % 1015,8 hPa 0,0 l/m 0 min 0 min 0 W/m 6,4 km/h (2 Bft) 97,87 %
18.04.2022 20:56 15,7 C 13,9 C 10,0 C 49 % 1015,8 hPa 0,0 l/m 0 min 0 min 0 W/m 6,4 km/h (2 Bft) 97,87 %
18.04.2022 20:58 15,7 C 13,9 C 10,0 C 50 % 1015,9 hPa 0,0 l/m 0 min 0 min 0 W/m 6,4 km/h (2 Bft) 97,87 %
18.04.2022 21:00 15,6 C 13,3 C 10,0 C 51 % 1015,9 hPa 0,0 l/m 0 min 0 min 0 W/m 3,2 km/h (1 Bft) 97,87 %
18.04.2022 21:02 15,6 C 13,3 C 10,0 C 51 % 1016,0 hPa 0,0 l/m 0 min 0 min 0 W/m 3,2 km/h (1 Bft) 97,87 %
18.04.2022 21:04 15,5 C 13,3 C 10,0 C 51 % 1015,9 hPa 0,0 l/m 0 min 0 min 0 W/m 3,2 km/h (1 Bft) 100,00 %
18.04.2022 21:06 15,4 C 13,3 C 10,0 C 52 % 1016,0 hPa 0,0 l/m 0 min 0 min 0 W/m 3,2 km/h (1 Bft) 97,87 %
18.04.2022 21:08 15,4 C 13,3 C 9,4 C 53 % 1015,9 hPa 0,0 l/m 0 min 0 min 0 W/m 3,2 km/h (1 Bft) 97,87 %
18.04.2022 21:10 15,3 C 12,8 C 9,4 C 54 % 1016,1 hPa 0,0 l/m 0 min 0 min 0 W/m 3,2 km/h (1 Bft) 97,87 %
18.04.2022 21:12 15,2 C 12,8 C 9,4 C 53 % 1016,0 hPa 0,0 l/m 0 min 0 min 0 W/m 3,2 km/h (1 Bft) 95,74 %
18.04.2022 21:14 15,2 C 12,8 C 9,4 C 53 % 1016,1 hPa 0,0 l/m 0 min 0 min 0 W/m 3,2 km/h (1 Bft) 97,87 %
18.04.2022 21:16 15,1 C 12,8 C 9,4 C 53 % 1016,1 hPa 0,0 l/m 0 min 0 min 0 W/m 6,4 km/h (2 Bft) 100,00 %
18.04.2022 21:18 15,0 C 12,8 C 9,4 C 53 % 1016,1 hPa 0,0 l/m 0 min 0 min 0 W/m 3,2 km/h (1 Bft) 100,00 %
18.04.2022 21:20 14,9 C 12,8 C 9,4 C 53 % 1016,1 hPa 0,0 l/m 0 min 0 min 0 W/m 3,2 km/h (1 Bft) 100,00 %
18.04.2022 21:22 14,8 C 12,8 C 9,4 C 53 % 1016,1 hPa 0,0 l/m 0 min 0 min 0 W/m 3,2 km/h (1 Bft) 100,00 %
18.04.2022 21:24 14,8 C 12,8 C 9,4 C 53 % 1016,0 hPa 0,0 l/m 0 min 0 min 0 W/m 3,2 km/h (1 Bft) 100,00 %
18.04.2022 21:26 14,7 C 12,8 C 9,4 C 52 % 1016,1 hPa 0,0 l/m 0 min 0 min 0 W/m 6,4 km/h (2 Bft) 100,00 %
18.04.2022 21:28 14,6 C 12,8 C 9,4 C 52 % 1016,1 hPa 0,0 l/m 0 min 0 min 0 W/m 3,2 km/h (1 Bft) 100,00 %
18.04.2022 21:30 14,6 C 12,8 C 9,4 C 54 % 1016,1 hPa 0,0 l/m 0 min 0 min 0 W/m 3,2 km/h (1 Bft) 100,00 %
18.04.2022 21:32 14,4 C 12,8 C 8,9 C 53 % 1016,1 hPa 0,0 l/m 0 min 0 min 0 W/m 3,2 km/h (1 Bft) 100,00 %
18.04.2022 21:34 14,3 C 12,2 C 8,9 C 54 % 1016,1 hPa 0,0 l/m 0 min 0 min 0 W/m 3,2 km/h (1 Bft) 100,00 %
18.04.2022 21:36 14,3 C 12,2 C 8,9 C 54 % 1016,1 hPa 0,0 l/m 0 min 0 min 0 W/m 3,2 km/h (1 Bft) 97,87 %
18.04.2022 21:38 14,3 C 12,2 C 8,9 C 53 % 1016,1 hPa 0,0 l/m 0 min 0 min 0 W/m 3,2 km/h (1 Bft) 100,00 %
18.04.2022 21:40 14,3 C 12,2 C 8,9 C 53 % 1016,1 hPa 0,0 l/m 0 min 0 min 0 W/m 3,2 km/h (1 Bft) 97,83 %
18.04.2022 21:42 14,3 C 12,2 C 8,9 C 53 % 1016,1 hPa 0,0 l/m 0 min 0 min 0 W/m 3,2 km/h (1 Bft) 100,00 %
18.04.2022 21:44 14,2 C 12,2 C 8,9 C 53 % 1016,1 hPa 0,0 l/m 0 min 0 min 0 W/m 3,2 km/h (1 Bft) 100,00 %
18.04.2022 21:46 14,2 C 12,2 C 8,9 C 53 % 1016,1 hPa 0,0 l/m 0 min 0 min 0 W/m 3,2 km/h (1 Bft) 100,00 %
18.04.2022 21:48 14,1 C 12,2 C 8,9 C 53 % 1016,2 hPa 0,0 l/m 0 min 0 min 0 W/m 0,0 km/h (0 Bft) 100,00 %
18.04.2022 21:50 14,1 C 12,2 C 8,9 C 54 % 1016,1 hPa 0,0 l/m 0 min 0 min 0 W/m 3,2 km/h (1 Bft) 100,00 %
18.04.2022 21:52 14,0 C 12,2 C 8,9 C 53 % 1016,2 hPa 0,0 l/m 0 min 0 min 0 W/m 0,0 km/h (0 Bft) 100,00 %
18.04.2022 21:54 14,0 C 12,2 C 8,9 C 53 % 1016,1 hPa 0,0 l/m 0 min 0 min 0 W/m 3,2 km/h (1 Bft) 100,00 %
18.04.2022 21:56 13,9 C 12,2 C 8,3 C 54 % 1016,1 hPa 0,0 l/m 0 min 0 min 0 W/m 3,2 km/h (1 Bft) 100,00 %
18.04.2022 21:58 13,9 C 12,2 C 8,3 C 54 % 1016,1 hPa 0,0 l/m 0 min 0 min 0 W/m 3,2 km/h (1 Bft) 100,00 %
18.04.2022 22:00 13,9 C 12,2 C 8,3 C 54 % 1016,1 hPa 0,0 l/m 0 min 0 min 0 W/m 3,2 km/h (1 Bft) 100,00 %
18.04.2022 22:02 13,8 C 12,2 C 8,3 C 54 % 1016,1 hPa 0,0 l/m 0 min 0 min 0 W/m 0,0 km/h (0 Bft) 97,83 %
18.04.2022 22:04 13,8 C 12,2 C 8,3 C 54 % 1016,1 hPa 0,0 l/m 0 min 0 min 0 W/m 3,2 km/h (1 Bft) 100,00 %
18.04.2022 22:06 13,8 C 11,7 C 8,3 C 54 % 1016,1 hPa 0,0 l/m 0 min 0 min 0 W/m 3,2 km/h (1 Bft) 100,00 %
18.04.2022 22:08 13,7 C 11,7 C 8,3 C 54 % 1016,1 hPa 0,0 l/m 0 min 0 min 0 W/m 3,2 km/h (1 Bft) 100,00 %
18.04.2022 22:10 13,7 C 11,7 C 8,3 C 54 % 1016,1 hPa 0,0 l/m 0 min 0 min 0 W/m 3,2 km/h (1 Bft) 97,87 %
18.04.2022 22:12 13,6 C 11,7 C 7,8 C 54 % 1016,0 hPa 0,0 l/m 0 min 0 min 0 W/m 3,2 km/h (1 Bft) 97,87 %
18.04.2022 22:14 13,6 C 11,7 C 7,8 C 55 % 1016,1 hPa 0,0 l/m 0 min 0 min 0 W/m 0,0 km/h (0 Bft) 93,62 %
18.04.2022 22:16 13,6 C 11,7 C 7,8 C 55 % 1016,0 hPa 0,0 l/m 0 min 0 min 0 W/m 0,0 km/h (0 Bft) 95,65 %
18.04.2022 22:18 13,5 C 11,7 C 7,8 C 56 % 1015,9 hPa 0,0 l/m 0 min 0 min 0 W/m 3,2 km/h (1 Bft) 97,87 %
18.04.2022 22:20 13,4 C 11,7 C 7,8 C 56 % 1015,9 hPa 0,0 l/m 0 min 0 min 0 W/m 0,0 km/h (0 Bft) 97,87 %
18.04.2022 22:22 13,4 C 11,7 C 7,8 C 58 % 1015,9 hPa 0,0 l/m 0 min 0 min 0 W/m 3,2 km/h (1 Bft) 97,87 %
18.04.2022 22:24 13,3 C 11,1 C 7,8 C 56 % 1015,9 hPa 0,0 l/m 0 min 0 min 0 W/m 6,4 km/h (2 Bft) 97,87 %
18.04.2022 22:26 13,2 C 11,1 C 7,8 C 57 % 1015,8 hPa 0,0 l/m 0 min 0 min 0 W/m 3,2 km/h (1 Bft) 93,62 %
18.04.2022 22:28 13,1 C 11,1 C 7,8 C 57 % 1015,9 hPa 0,0 l/m 0 min 0 min 0 W/m 3,2 km/h (1 Bft) 97,83 %
18.04.2022 22:30 13,1 C 11,1 C 7,8 C 57 % 1015,9 hPa 0,0 l/m 0 min 0 min 0 W/m 3,2 km/h (1 Bft) 97,87 %
18.04.2022 22:32 12,9 C 11,1 C 7,8 C 57 % 1015,8 hPa 0,0 l/m 0 min 0 min 0 W/m 3,2 km/h (1 Bft) 97,87 %
18.04.2022 22:34 12,9 C 11,1 C 7,8 C 56 % 1015,9 hPa 0,0 l/m 0 min 0 min 0 W/m 3,2 km/h (1 Bft) 95,74 %
18.04.2022 22:36 12,8 C 11,1 C 7,8 C 56 % 1015,9 hPa 0,0 l/m 0 min 0 min 0 W/m 3,2 km/h (1 Bft) 95,74 %
18.04.2022 22:38 12,8 C 11,1 C 7,8 C 57 % 1015,8 hPa 0,0 l/m 0 min 0 min 0 W/m 0,0 km/h (0 Bft) 95,74 %
18.04.2022 22:40 12,8 C 11,1 C 7,8 C 58 % 1015,9 hPa 0,0 l/m 0 min 0 min 0 W/m 3,2 km/h (1 Bft) 97,83 %
18.04.2022 22:42 12,7 C 11,1 C 7,8 C 57 % 1015,9 hPa 0,0 l/m 0 min 0 min 0 W/m 3,2 km/h (1 Bft) 93,62 %
18.04.2022 22:44 12,7 C 11,1 C 7,8 C 56 % 1015,9 hPa 0,0 l/m 0 min 0 min 0 W/m 3,2 km/h (1 Bft) 93,62 %
18.04.2022 22:46 12,6 C 11,1 C 7,8 C 56 % 1015,8 hPa 0,0 l/m 0 min 0 min 0 W/m 3,2 km/h (1 Bft) 95,74 %
18.04.2022 22:48 12,6 C 11,1 C 7,8 C 56 % 1015,9 hPa 0,0 l/m 0 min 0 min 0 W/m 3,2 km/h (1 Bft) 95,74 %
18.04.2022 22:50 12,6 C 11,1 C 7,2 C 56 % 1015,9 hPa 0,0 l/m 0 min 0 min 0 W/m 0,0 km/h (0 Bft) 95,74 %
18.04.2022 22:52 12,6 C 10,6 C 7,2 C 56 % 1015,9 hPa 0,0 l/m 0 min 0 min 0 W/m 3,2 km/h (1 Bft) 93,48 %
18.04.2022 22:54 12,5 C 10,6 C 7,2 C 56 % 1015,9 hPa 0,0 l/m 0 min 0 min 0 W/m 3,2 km/h (1 Bft) 93,62 %
18.04.2022 22:56 12,5 C 10,6 C 7,2 C 57 % 1015,8 hPa 0,0 l/m 0 min 0 min 0 W/m 3,2 km/h (1 Bft) 95,74 %
18.04.2022 22:58 12,4 C 10,6 C 7,2 C 57 % 1015,9 hPa 0,0 l/m 0 min 0 min 0 W/m 3,2 km/h (1 Bft) 95,74 %
18.04.2022 23:00 12,4 C 10,6 C 7,2 C 57 % 1015,9 hPa 0,0 l/m 0 min 0 min 0 W/m 3,2 km/h (1 Bft) 95,74 %
18.04.2022 23:02 12,4 C 10,6 C 7,2 C 58 % 1015,9 hPa 0,0 l/m 0 min 0 min 0 W/m 3,2 km/h (1 Bft) 93,62 %
18.04.2022 23:04 12,4 C 10,6 C 6,7 C 58 % 1015,9 hPa 0,0 l/m 0 min 0 min 0 W/m 3,2 km/h (1 Bft) 93,48 %
18.04.2022 23:06 12,3 C 10,6 C 6,7 C 59 % 1015,9 hPa 0,0 l/m 0 min 0 min 0 W/m 3,2 km/h (1 Bft) 95,74 %
18.04.2022 23:08 12,3 C 10,6 C 6,7 C 59 % 1016,0 hPa 0,0 l/m 0 min 0 min 0 W/m 3,2 km/h (1 Bft) 97,87 %
18.04.2022 23:10 12,3 C 10,6 C 6,7 C 58 % 1015,9 hPa 0,0 l/m 0 min 0 min 0 W/m 3,2 km/h (1 Bft) 97,87 %
18.04.2022 23:12 12,2 C 10,0 C 6,7 C 61 % 1015,9 hPa 0,0 l/m 0 min 0 min 0 W/m 3,2 km/h (1 Bft) 95,74 %
18.04.2022 23:14 12,2 C 10,0 C 6,7 C 61 % 1016,0 hPa 0,0 l/m 0 min 0 min 0 W/m 3,2 km/h (1 Bft) 97,83 %
18.04.2022 23:16 12,2 C 10,0 C 6,7 C 61 % 1016,0 hPa 0,0 l/m 0 min 0 min 0 W/m 0,0 km/h (0 Bft) 97,87 %
18.04.2022 23:18 12,1 C 10,0 C 6,7 C 61 % 1015,9 hPa 0,0 l/m 0 min 0 min 0 W/m 3,2 km/h (1 Bft) 97,87 %
18.04.2022 23:20 12,1 C 10,0 C 6,7 C 62 % 1015,9 hPa 0,0 l/m 0 min 0 min 0 W/m 0,0 km/h (0 Bft) 97,87 %
18.04.2022 23:22 12,0 C 10,0 C 6,7 C 61 % 1015,9 hPa 0,0 l/m 0 min 0 min 0 W/m 0,0 km/h (0 Bft) 97,87 %
18.04.2022 23:24 11,9 C 10,0 C 6,7 C 61 % 1015,9 hPa 0,0 l/m 0 min 0 min 0 W/m 0,0 km/h (0 Bft) 97,87 %
18.04.2022 23:26 11,9 C 10,0 C 6,7 C 61 % 1016,0 hPa 0,0 l/m 0 min 0 min 0 W/m 0,0 km/h (0 Bft) 97,83 %
18.04.2022 23:28 11,8 C 10,0 C 6,7 C 61 % 1015,9 hPa 0,0 l/m 0 min 0 min 0 W/m 0,0 km/h (0 Bft) 95,74 %
18.04.2022 23:30 11,8 C 10,0 C 6,7 C 60 % 1015,9 hPa 0,0 l/m 0 min 0 min 0 W/m 3,2 km/h (1 Bft) 97,87 %
18.04.2022 23:32 11,7 C 9,4 C 6,7 C 61 % 1015,9 hPa 0,0 l/m 0 min 0 min 0 W/m 3,2 km/h (1 Bft) 97,87 %
18.04.2022 23:34 11,7 C 9,4 C 6,7 C 61 % 1016,0 hPa 0,0 l/m 0 min 0 min 0 W/m 3,2 km/h (1 Bft) 97,87 %
18.04.2022 23:36 11,6 C 9,4 C 6,1 C 61 % 1015,9 hPa 0,0 l/m 0 min 0 min 0 W/m 0,0 km/h (0 Bft) 97,87 %
18.04.2022 23:38 11,6 C 9,4 C 6,1 C 62 % 1015,8 hPa 0,0 l/m 0 min 0 min 0 W/m 3,2 km/h (1 Bft) 100,00 %
18.04.2022 23:40 11,6 C 9,4 C 6,1 C 62 % 1015,8 hPa 0,0 l/m 0 min 0 min 0 W/m 3,2 km/h (1 Bft) 100,00 %
18.04.2022 23:42 11,5 C 9,4 C 6,1 C 62 % 1015,8 hPa 0,0 l/m 0 min 0 min 0 W/m 3,2 km/h (1 Bft) 100,00 %
18.04.2022 23:44 11,4 C 9,4 C 6,1 C 61 % 1015,8 hPa 0,0 l/m 0 min 0 min 0 W/m 3,2 km/h (1 Bft) 100,00 %
18.04.2022 23:46 11,3 C 9,4 C 6,1 C 61 % 1015,8 hPa 0,0 l/m 0 min 0 min 0 W/m 3,2 km/h (1 Bft) 95,74 %
18.04.2022 23:48 11,3 C 9,4 C 6,1 C 61 % 1015,8 hPa 0,0 l/m 0 min 0 min 0 W/m 3,2 km/h (1 Bft) 100,00 %
18.04.2022 23:50 11,3 C 9,4 C 6,1 C 62 % 1015,8 hPa 0,0 l/m 0 min 0 min 0 W/m 3,2 km/h (1 Bft) 97,83 %
18.04.2022 23:52 11,2 C 9,4 C 6,1 C 62 % 1015,8 hPa 0,0 l/m 0 min 0 min 0 W/m 3,2 km/h (1 Bft) 97,87 %
18.04.2022 23:54 11,2 C 9,4 C 6,1 C 63 % 1015,8 hPa 0,0 l/m 0 min 0 min 0 W/m 3,2 km/h (1 Bft) 93,62 %
18.04.2022 23:56 11,1 C 8,9 C 6,1 C 63 % 1015,8 hPa 0,0 l/m 0 min 0 min 0 W/m 0,0 km/h (0 Bft) 97,87 %
18.04.2022 23:58 11,1 C 8,9 C 6,1 C 64 % 1015,8 hPa 0,0 l/m 0 min 0 min 0 W/m 0,0 km/h (0 Bft) 97,87 %
_ Min-Zeit 06:52 05:56 06:14 13:50 19:26 - - - - 00:04 00:26
Minimum _ 6,8 C 6,1 C 2,8 C 35 % 1015,5 hPa - - - - 0,0 km/h (0 Bft) 48,78 %
_ Max-Zeit 18:24 16:46 12:32 07:06 00:00 00:00 12:08 00:00 13:22 09:08 00:42
Maximum _ 22,6 C 30,0 C 22,8 C 65 % 1021,5 hPa 0,0 l/m 4 min 0 min 876 W/m 22,5 km/h
SW (4 Bft)
100,00 %
Durchschnitt _ 14,1 C 15,3 C 9,8 C 50 % 1018,7 hPa #0,0 l/m #9:48 h #0 min. 451 W/m 8,2 km/h (2 Bft) 97,48 %
© 2022 W. Hausmann